M I D A S
Marine Information and Data Acquisition System
Tripno 1738 of the Zeeleeuw from 2009-07-24 06:57:02 to 2009-07-24 14:23:39
Back to CruiseResearch ActivitiesStationsMapUnderway DataData graphs

EquipmentUnitsComment
TimeDGPSUTC
LatitudeDGPSDM.mWGS84
LongitudeDGPSDM.mWGS84
TemperatureSBE03/SBE38deg celciusITS90
ConductivitySBE21S/mITS90
SalinitySBE21 Practical Salinity Units
ChlorophylAChelsea fluorimeterg/lCalibrated in Aceton
Missing or incorrect values are displayed as -999
Sea surface data collected by the RV Zeeleeuw from 2009-07-24 06:43:54 to 2009-07-24 14:21:55
                                                                                    Next 1000 lines
Time Latitude Longitude Temperature Conductivity Salinity ChlorophylA
2009-07-24 06:44:05 51°13.662 2°55.952 22.2071 2.327435 15.484455 12.406692
2009-07-24 06:44:09 51°13.663 2°55.949 22.1981 2.326919 15.480972 12.441517
2009-07-24 06:44:14 51°13.664 2°55.945 22.1899 2.327125 15.482753 12.406692
2009-07-24 06:44:21 51°13.666 2°55.938 22.1913 2.326919 15.481525 12.406692
2009-07-24 06:44:26 51°13.668 2°55.932 22.2173 2.327022 15.482554 12.406692
2009-07-24 06:44:32 51°13.67 2°55.925 22.2036 2.327022 15.482554 12.406692
2009-07-24 06:44:37 51°13.672 2°55.918 22.1674 2.327022 15.482554 12.406692
2009-07-24 06:44:43 51°13.674 2°55.91 22.1863 2.327125 15.483306 12.406692
2009-07-24 06:44:48 51°13.676 2°55.902 22.1947 2.326815 15.48105 12.406692
2009-07-24 06:44:53 51°13.677 2°55.895 22.2208 2.326815 15.481327 12.406692
2009-07-24 06:44:58 51°13.679 2°55.888 22.2308 2.327022 15.483384 12.406692
2009-07-24 06:45:03 51°13.681 2°55.881 22.2265 2.327022 15.483384 12.406692
2009-07-24 06:45:08 51°13.683 2°55.874 22.2274 2.326815 15.482157 12.406692
2009-07-24 06:45:13 51°13.684 2°55.866 22.2249 2.327022 15.483938 12.406692
2009-07-24 06:45:18 51°13.686 2°55.859 22.2308 2.326712 15.481682 12.441517
2009-07-24 06:45:23 51°13.687 2°55.852 22.2264 2.326919 15.483462 12.406692
2009-07-24 06:45:28 51°13.688 2°55.845 22.2238 2.326815 15.48271 12.406692
2009-07-24 06:45:33 51°13.69 2°55.838 22.2259 2.326815 15.48271 12.406692
2009-07-24 06:45:38 51°13.691 2°55.83 22.229 2.326815 15.482987 12.406692
2009-07-24 06:45:43 51°13.692 2°55.823 22.2282 2.326815 15.482987 12.406692
2009-07-24 06:45:48 51°13.692 2°55.817 22.2283 2.326815 15.482987 12.406692
2009-07-24 06:45:53 51°13.694 2°55.81 22.2275 2.326712 15.482235 12.406692
2009-07-24 06:45:57 51°13.694 2°55.805 22.2274 2.326712 15.482235 12.406692
2009-07-24 06:46:03 51°13.695 2°55.797 22.2284 2.326712 15.482235 12.406692
2009-07-24 06:46:08 51°13.696 2°55.791 22.2284 2.326815 15.483264 12.406692
2009-07-24 06:46:12 51°13.696 2°55.786 22.2314 2.326712 15.482789 12.406692
2009-07-24 06:46:17 51°13.697 2°55.78 22.2294 2.326609 15.482313 12.406692
2009-07-24 06:46:23 51°13.697 2°55.773 22.2333 2.326505 15.481561 12.406692
2009-07-24 06:46:28 51°13.698 2°55.767 22.2369 2.326609 15.48259 12.406692
2009-07-24 06:46:32 51°13.698 2°55.763 22.2348 2.326609 15.48259 12.406692
2009-07-24 06:46:37 51°13.698 2°55.758 22.2349 2.326609 15.482867 12.406692
2009-07-24 06:46:43 51°13.698 2°55.753 22.2359 2.326505 15.482391 12.406692
2009-07-24 06:46:48 51°13.698 2°55.748 22.2328 2.326609 15.483144 12.406692
2009-07-24 06:46:52 51°13.699 2°55.745 22.2386 2.326505 15.482668 12.406692
2009-07-24 06:46:56 51°13.699 2°55.743 22.2409 2.326505 15.482668 12.406692
2009-07-24 06:47:01 51°13.699 2°55.74 22.2571 2.326505 15.482668 12.406692
2009-07-24 06:47:06 51°13.7 2°55.738 22.246 2.326505 15.482945 12.406692
2009-07-24 06:47:12 51°13.7 2°55.736 22.2439 2.326402 15.48247 12.406692
2009-07-24 06:47:16 51°13.701 2°55.736 22.2418 2.326402 15.482746 12.406692
2009-07-24 06:47:20 51°13.701 2°55.735 22.2469 2.326402 15.483023 12.406692
2009-07-24 06:47:25 51°13.702 2°55.735 22.2459 2.326402 15.483023 12.406692
2009-07-24 06:47:31 51°13.704 2°55.735 22.2488 2.326402 15.483023 12.406692
2009-07-24 06:47:36 51°13.705 2°55.736 22.2485 2.326402 15.4833 12.406692
2009-07-24 06:47:40 51°13.706 2°55.736 22.2517 2.326402 15.483577 12.406692
2009-07-24 06:47:45 51°13.708 2°55.737 22.2569 2.326299 15.483101 12.406692
2009-07-24 06:47:51 51°13.71 2°55.737 22.2655 2.326299 15.483101 12.406692
2009-07-24 06:47:56 51°13.712 2°55.738 22.2831 2.326299 15.483378 12.406692
2009-07-24 06:48:00 51°13.714 2°55.738 22.2894 2.326299 15.483378 12.406692
2009-07-24 06:48:05 51°13.716 2°55.739 22.303 2.326299 15.483655 12.406692
2009-07-24 06:48:10 51°13.72 2°55.739 22.3043 2.326402 15.485238 12.406692
2009-07-24 06:48:15 51°13.724 2°55.738 22.3031 2.326402 15.485515 12.406692
2009-07-24 06:48:20 51°13.728 2°55.737 22.2979 2.326402 15.485792 12.406692
2009-07-24 06:48:25 51°13.733 2°55.734 22.2879 2.326506 15.486544 12.406692
2009-07-24 06:48:29 51°13.737 2°55.731 22.2866 2.326506 15.486544 12.406692
2009-07-24 06:48:34 51°13.742 2°55.726 22.246 2.326299 15.484763 12.371868
2009-07-24 06:48:39 51°13.747 2°55.722 22.2256 2.326402 15.485238 12.406692
2009-07-24 06:48:44 51°13.753 2°55.716 22.215 2.326299 15.484209 12.406692
2009-07-24 06:48:49 51°13.76 2°55.709 22.212 2.326402 15.484407 12.406692
2009-07-24 06:48:54 51°13.766 2°55.702 22.2005 2.326196 15.482626 12.406692
2009-07-24 06:48:59 51°13.774 2°55.695 22.2068 2.326196 15.482626 12.406692
2009-07-24 06:49:04 51°13.782 2°55.687 22.1742 2.326299 15.483378 12.406692
2009-07-24 06:49:09 51°13.79 2°55.678 22.1851 2.325989 15.480845 12.406692
2009-07-24 06:49:14 51°13.799 2°55.67 22.1949 2.326196 15.482626 12.406692
2009-07-24 06:49:18 51°13.806 2°55.663 22.1942 2.326092 15.481874 12.406692
2009-07-24 06:49:24 51°13.817 2°55.653 22.1966 2.326196 15.482903 12.406692
2009-07-24 06:49:29 51°13.827 2°55.644 22.1814 2.326196 15.482903 12.406692
2009-07-24 06:49:34 51°13.836 2°55.635 22.1796 2.326196 15.482903 12.406692
2009-07-24 06:49:39 51°13.847 2°55.626 22.189 2.326092 15.482427 12.371868
2009-07-24 06:49:44 51°13.857 2°55.617 22.1979 2.325989 15.481952 12.406692
2009-07-24 06:49:49 51°13.867 2°55.608 22.2059 2.326092 15.482981 12.371868
2009-07-24 06:49:53 51°13.876 2°55.602 22.1957 2.325782 15.481001 12.406692
2009-07-24 06:49:59 51°13.889 2°55.591 22.2047 2.325782 15.481001 12.406692
2009-07-24 06:50:04 51°13.9 2°55.583 22.2089 2.325989 15.482782 12.406692
2009-07-24 06:50:09 51°13.911 2°55.574 22.2081 2.325782 15.481278 12.406692
2009-07-24 06:50:13 51°13.92 2°55.567 22.2112 2.325782 15.481832 12.406692
2009-07-24 06:50:19 51°13.933 2°55.557 22.2105 2.325989 15.483336 12.406692
2009-07-24 06:50:24 51°13.944 2°55.548 22.214 2.325782 15.482108 12.406692
2009-07-24 06:50:29 51°13.956 2°55.54 22.214 2.325782 15.482108 12.406692
2009-07-24 06:50:34 51°13.967 2°55.531 22.2175 2.325886 15.482861 12.406692
2009-07-24 06:50:39 51°13.978 2°55.523 22.2123 2.325886 15.482861 12.406692
2009-07-24 06:50:44 51°13.989 2°55.514 22.2178 2.325679 15.481633 12.406692
2009-07-24 06:50:49 51°14.001 2°55.506 22.2207 2.325782 15.482662 12.371868
2009-07-24 06:50:54 51°14.012 2°55.498 22.2202 2.325679 15.482187 12.406692
2009-07-24 06:50:59 51°14.024 2°55.49 22.2261 2.325679 15.482187 12.406692
2009-07-24 06:51:04 51°14.035 2°55.482 22.2159 2.325782 15.483216 12.406692
2009-07-24 06:51:09 51°14.046 2°55.473 22.2198 2.325782 15.483216 12.406692
2009-07-24 06:51:14 51°14.058 2°55.465 22.2195 2.325679 15.482741 12.406692
2009-07-24 06:51:18 51°14.067 2°55.458 22.2327 2.325679 15.482741 12.406692
2009-07-24 06:51:24 51°14.08 2°55.448 22.2148 2.325679 15.482741 12.406692
2009-07-24 06:51:29 51°14.092 2°55.439 22.2263 2.325679 15.482741 12.406692
2009-07-24 06:51:34 51°14.103 2°55.43 22.2454 2.325472 15.481513 12.406692
2009-07-24 06:51:39 51°14.114 2°55.421 22.2388 2.325576 15.482542 12.371868
2009-07-24 06:51:44 51°14.125 2°55.412 22.2377 2.325679 15.483294 12.406692
2009-07-24 06:51:49 51°14.136 2°55.403 22.234 2.325576 15.482542 12.406692
2009-07-24 06:51:54 51°14.147 2°55.393 22.2421 2.325472 15.481789 12.406692
2009-07-24 06:51:59 51°14.158 2°55.383 22.2491 2.325472 15.481789 12.406692
2009-07-24 06:52:04 51°14.169 2°55.374 22.2547 2.325576 15.482819 12.371868
2009-07-24 06:52:09 51°14.18 2°55.364 22.2654 2.325472 15.482343 12.371868
2009-07-24 06:52:14 51°14.191 2°55.353 22.2705 2.325266 15.481115 12.371868
2009-07-24 06:52:19 51°14.201 2°55.342 22.2714 2.325472 15.483174 12.371868
2009-07-24 06:52:24 51°14.211 2°55.33 22.2687 2.325472 15.483174 12.371868
2009-07-24 06:52:29 51°14.222 2°55.317 22.2646 2.325472 15.483174 12.371868
2009-07-24 06:52:34 51°14.231 2°55.304 22.2314 2.325369 15.482699 12.406692
2009-07-24 06:52:39 51°14.241 2°55.291 22.2498 2.325472 15.483451 12.406692
2009-07-24 06:52:44 51°14.25 2°55.277 22.2593 2.325472 15.483728 12.371868
2009-07-24 06:52:49 51°14.259 2°55.263 22.2505 2.325576 15.484481 12.371868
2009-07-24 06:52:53 51°14.267 2°55.251 22.2673 2.325782 15.485986 12.406692
2009-07-24 06:52:59 51°14.277 2°55.233 22.234 2.325782 15.485986 12.406692
2009-07-24 06:53:04 51°14.286 2°55.218 22.211 2.325576 15.484758 12.371868
2009-07-24 06:53:09 51°14.295 2°55.202 22.2347 2.325576 15.484204 12.371868
2009-07-24 06:53:13 51°14.301 2°55.188 22.2306 2.325369 15.482976 12.371868
2009-07-24 06:53:19 51°14.312 2°55.169 22.2367 2.325472 15.483451 12.371868
2009-07-24 06:53:24 51°14.32 2°55.152 22.239 2.325369 15.482699 12.406692
2009-07-24 06:53:29 51°14.329 2°55.135 22.2102 2.325369 15.482699 12.406692
2009-07-24 06:53:33 51°14.336 2°55.122 22.2086 2.325266 15.481946 12.371868
2009-07-24 06:53:39 51°14.346 2°55.101 22.2005 2.325369 15.482699 12.406692
2009-07-24 06:53:44 51°14.355 2°55.084 22.2181 2.325369 15.482699 12.371868
2009-07-24 06:53:49 51°14.364 2°55.068 22.1837 2.325369 15.482699 12.371868
2009-07-24 06:53:53 51°14.371 2°55.055 22.2166 2.325162 15.481194 12.371868
2009-07-24 06:53:59 51°14.383 2°55.036 22.2337 2.325162 15.481194 12.371868
2009-07-24 06:54:04 51°14.393 2°55.021 22.2193 2.325162 15.481747 12.371868
2009-07-24 06:54:10 51°14.405 2°55.003 22.2093 2.325266 15.482777 12.371868
2009-07-24 06:54:13 51°14.411 2°54.994 22.2019 2.325162 15.482301 12.371868
2009-07-24 06:54:19 51°14.424 2°54.977 22.2558 2.325162 15.482578 12.371868
2009-07-24 06:54:25 51°14.438 2°54.961 22.2401 2.325162 15.483132 12.371868
2009-07-24 06:54:30 51°14.449 2°54.947 22.2316 2.325162 15.483132 12.371868
2009-07-24 06:54:34 51°14.458 2°54.936 22.209 2.325266 15.483885 12.371868
2009-07-24 06:54:39 51°14.47 2°54.921 22.2136 2.325162 15.482855 12.371868
2009-07-24 06:54:44 51°14.482 2°54.907 22.2035 2.324956 15.481073 12.371868
2009-07-24 06:54:50 51°14.496 2°54.89 22.219 2.325266 15.483885 12.371868
2009-07-24 06:54:54 51°14.506 2°54.879 22.1344 2.324956 15.48135 12.371868
2009-07-24 06:54:59 51°14.518 2°54.865 22.1982 2.324956 15.48135 12.371868
2009-07-24 06:55:04 51°14.532 2°54.853 22.2195 2.324956 15.481904 12.406692
2009-07-24 06:55:09 51°14.545 2°54.842 22.1922 2.325162 15.484241 12.371868
2009-07-24 06:55:14 51°14.558 2°54.83 22.2196 2.325162 15.484518 12.371868
2009-07-24 06:55:19 51°14.571 2°54.818 22.1769 2.325162 15.484518 12.371868
2009-07-24 06:55:24 51°14.585 2°54.806 22.2132 2.325266 15.484993 12.371868
2009-07-24 06:55:29 51°14.598 2°54.794 22.1951 2.325266 15.484993 12.371868
2009-07-24 06:55:34 51°14.612 2°54.781 22.2025 2.325162 15.484241 12.371868
2009-07-24 06:55:39 51°14.625 2°54.769 22.1967 2.325059 15.484042 12.371868
2009-07-24 06:55:44 51°14.639 2°54.757 22.2153 2.325266 15.485548 12.371868
2009-07-24 06:55:49 51°14.653 2°54.744 22.1812 2.325162 15.484795 12.371868
2009-07-24 06:55:54 51°14.667 2°54.732 22.1867 2.325266 15.485548 12.371868
2009-07-24 06:55:59 51°14.681 2°54.719 22.1996 2.325266 15.485548 12.371868
2009-07-24 06:56:04 51°14.694 2°54.706 22.1976 2.325162 15.485072 12.371868
2009-07-24 06:56:10 51°14.711 2°54.691 22.1842 2.325162 15.485072 12.406692
2009-07-24 06:56:14 51°14.722 2°54.68 22.198 2.325059 15.484042 12.406692
2009-07-24 06:56:19 51°14.736 2°54.668 22.1584 2.325059 15.483765 12.406692
2009-07-24 06:56:24 51°14.749 2°54.655 22.1968 2.325162 15.484795 12.371868
2009-07-24 06:56:30 51°14.766 2°54.639 22.1685 2.325162 15.484795 12.371868
2009-07-24 06:56:34 51°14.777 2°54.629 22.1697 2.325162 15.484795 12.371868
2009-07-24 06:56:39 51°14.791 2°54.616 22.1857 2.325059 15.484042 12.371868
2009-07-24 06:56:44 51°14.804 2°54.603 22.2032 2.324956 15.484121 12.371868
2009-07-24 06:56:49 51°14.818 2°54.59 22.1954 2.325059 15.485151 12.371868
2009-07-24 06:56:54 51°14.832 2°54.578 22.1673 2.324749 15.483169 12.371868
2009-07-24 06:56:59 51°14.846 2°54.565 22.1957 2.324749 15.483169 12.371868
2009-07-24 06:57:03 51°14.857 2°54.555 22.1954 2.324956 15.484675 12.371868
2009-07-24 06:57:09 51°14.874 2°54.54 22.1797 2.324852 15.483645 12.371868
2009-07-24 06:57:14 51°14.888 2°54.528 22.2017 2.324852 15.483922 12.371868
2009-07-24 06:57:19 51°14.902 2°54.516 22.1733 2.324852 15.484199 12.406692
2009-07-24 06:57:24 51°14.916 2°54.504 22.1767 2.324852 15.484476 12.406692
2009-07-24 06:57:29 51°14.93 2°54.491 22.1843 2.324852 15.484476 12.406692
2009-07-24 06:57:34 51°14.944 2°54.479 22.1772 2.324852 15.484476 12.371868
2009-07-24 06:57:39 51°14.958 2°54.467 22.1761 2.324956 15.485506 12.371868
2009-07-24 06:57:43 51°14.969 2°54.457 22.1828 2.324646 15.483525 12.371868
2009-07-24 06:57:49 51°14.986 2°54.443 22.1907 2.324956 15.486061 12.371868
2009-07-24 06:57:54 51°15 2°54.43 22.1489 2.324852 15.485585 12.371868
2009-07-24 06:57:59 51°15.014 2°54.418 22.1607 2.324852 15.485585 12.371868
2009-07-24 06:58:04 51°15.028 2°54.405 22.1655 2.324749 15.485386 12.371868
2009-07-24 06:58:09 51°15.042 2°54.394 22.1855 2.324749 15.484832 12.371868
2009-07-24 06:58:14 51°15.056 2°54.382 22.1794 2.324646 15.483802 12.371868
2009-07-24 06:58:19 51°15.07 2°54.37 22.1781 2.324956 15.486061 12.371868
2009-07-24 06:58:24 51°15.084 2°54.357 22.1761 2.324749 15.484832 12.371868
2009-07-24 06:58:30 51°15.101 2°54.342 22.1707 2.324749 15.484832 12.371868
2009-07-24 06:58:34 51°15.112 2°54.332 22.135 2.324749 15.485386 12.371868
2009-07-24 06:58:39 51°15.126 2°54.319 22.1833 2.324646 15.484911 12.371868
2009-07-24 06:58:44 51°15.14 2°54.306 22.1263 2.324646 15.484911 12.371868
2009-07-24 06:58:50 51°15.156 2°54.291 22.1783 2.324646 15.485188 12.371868
2009-07-24 06:58:54 51°15.167 2°54.28 22.1554 2.324646 15.485465 12.371868
2009-07-24 06:58:59 51°15.181 2°54.268 22.1795 2.324646 15.485465 12.371868
2009-07-24 06:59:04 51°15.195 2°54.255 22.1787 2.324542 15.485267 12.371868
2009-07-24 06:59:09 51°15.209 2°54.243 22.1485 2.324749 15.48705 12.371868
2009-07-24 06:59:14 51°15.223 2°54.23 22.1766 2.324646 15.486297 12.371868
2009-07-24 06:59:19 51°15.237 2°54.218 22.1641 2.324542 15.485544 12.371868
2009-07-24 06:59:23 51°15.248 2°54.207 22.1702 2.324646 15.487129 12.371868
2009-07-24 06:59:29 51°15.265 2°54.192 22.1764 2.324646 15.487129 12.371868
2009-07-24 06:59:34 51°15.279 2°54.18 22.1675 2.324542 15.48693 12.371868
2009-07-24 06:59:39 51°15.292 2°54.167 22.1384 2.324749 15.489545 12.371868
2009-07-24 06:59:43 51°15.304 2°54.157 22.1581 2.324542 15.488039 12.371868
2009-07-24 06:59:49 51°15.32 2°54.141 22.1845 2.324646 15.489624 12.371868
2009-07-24 06:59:54 51°15.334 2°54.128 22.1674 2.324646 15.489624 12.371868
2009-07-24 06:59:59 51°15.348 2°54.115 22.1876 2.324646 15.489624 12.371868
2009-07-24 07:00:04 51°15.362 2°54.102 22.1343 2.324439 15.488118 12.371868
2009-07-24 07:00:09 51°15.376 2°54.09 22.153 2.324542 15.489149 12.371868
2009-07-24 07:00:14 51°15.39 2°54.076 22.1667 2.324336 15.487642 12.371868
2009-07-24 07:00:19 51°15.403 2°54.063 22.1512 2.324336 15.488752 12.371868
2009-07-24 07:00:24 51°15.417 2°54.05 22.1717 2.324542 15.491923 12.371868
2009-07-24 07:00:29 51°15.431 2°54.037 22.1478 2.324542 15.491923 12.371868
2009-07-24 07:00:34 51°15.445 2°54.023 22.1657 2.324336 15.490416 12.371868
2009-07-24 07:00:39 51°15.459 2°54.01 22.1683 2.324232 15.488554 12.371868
2009-07-24 07:00:44 51°15.472 2°53.997 22.1752 2.324336 15.489307 12.371868
2009-07-24 07:00:50 51°15.489 2°53.98 22.1504 2.324232 15.488276 12.371868
2009-07-24 07:00:54 51°15.5 2°53.969 22.1697 2.324336 15.489862 12.371868
2009-07-24 07:00:59 51°15.513 2°53.955 22.1707 2.324336 15.489862 12.371868
2009-07-24 07:01:04 51°15.527 2°53.941 22.1524 2.324129 15.488355 12.371868
2009-07-24 07:01:09 51°15.541 2°53.927 22.154 2.324129 15.488355 12.371868
2009-07-24 07:01:14 51°15.555 2°53.914 22.1752 2.324232 15.488831 12.371868
2009-07-24 07:01:19 51°15.568 2°53.9 22.1721 2.324026 15.487047 12.371868
2009-07-24 07:01:24 51°15.582 2°53.886 22.1712 2.324129 15.487523 12.371868
2009-07-24 07:01:29 51°15.596 2°53.873 22.1615 2.324129 15.487523 12.371868
2009-07-24 07:01:34 51°15.61 2°53.859 22.1759 2.324026 15.48677 12.371868
2009-07-24 07:01:39 51°15.624 2°53.846 22.1545 2.323922 15.485462 12.371868
2009-07-24 07:01:44 51°15.638 2°53.832 22.1386 2.324026 15.485938 12.371868
2009-07-24 07:01:49 51°15.652 2°53.819 22.1774 2.324129 15.487246 12.371868
2009-07-24 07:01:54 51°15.666 2°53.805 22.1476 2.323922 15.486294 12.371868
2009-07-24 07:01:59 51°15.679 2°53.792 22.1653 2.323922 15.486294 12.371868
2009-07-24 07:02:04 51°15.693 2°53.778 22.1331 2.323922 15.486849 12.371868
2009-07-24 07:02:09 51°15.707 2°53.764 22.1656 2.323922 15.487958 12.371868
2009-07-24 07:02:14 51°15.721 2°53.75 22.1646 2.324026 15.490099 12.371868
2009-07-24 07:02:19 51°15.735 2°53.736 22.1569 2.323922 15.490456 12.371868
2009-07-24 07:02:24 51°15.749 2°53.723 22.143 2.323819 15.490812 12.337044
2009-07-24 07:02:29 51°15.762 2°53.709 22.1461 2.323819 15.490812 12.337044
2009-07-24 07:02:34 51°15.776 2°53.695 22.1718 2.324026 15.49343 12.371868
2009-07-24 07:02:39 51°15.79 2°53.681 22.1363 2.323923 15.49462 12.337044
2009-07-24 07:02:44 51°15.804 2°53.667 22.1615 2.323819 15.493588 12.337044
2009-07-24 07:02:49 51°15.817 2°53.652 22.1656 2.323716 15.49339 12.337044
2009-07-24 07:02:54 51°15.831 2°53.638 22.1678 2.323716 15.494223 12.337044
2009-07-24 07:02:59 51°15.845 2°53.624 22.1556 2.323716 15.494223 12.337044
2009-07-24 07:03:04 51°15.859 2°53.61 22.1653 2.323716 15.495056 12.337044
2009-07-24 07:03:09 51°15.872 2°53.595 22.1429 2.323716 15.49589 12.337044
2009-07-24 07:03:14 51°15.886 2°53.581 22.1562 2.323613 15.496247 12.337044
2009-07-24 07:03:19 51°15.9 2°53.567 22.1671 2.323406 15.49724 12.337044
2009-07-24 07:03:24 51°15.914 2°53.553 22.1701 2.323613 15.501805 12.337044
2009-07-24 07:03:29 51°15.927 2°53.539 22.1393 2.323613 15.501805 12.337044
2009-07-24 07:03:34 51°15.941 2°53.525 22.1688 2.323819 15.507764 12.337044
2009-07-24 07:03:39 51°15.955 2°53.511 22.1504 2.323613 15.506533 12.337044
2009-07-24 07:03:44 51°15.969 2°53.497 22.1658 2.323509 15.502163 12.337044
2009-07-24 07:03:49 51°15.983 2°53.483 22.1633 2.323406 15.498352 12.337044
2009-07-24 07:03:54 51°15.996 2°53.469 22.1475 2.323406 15.496129 12.337044
2009-07-24 07:03:59 51°16.01 2°53.455 22.1701 2.323406 15.496129 12.337044
2009-07-24 07:04:04 51°16.024 2°53.44 22.1669 2.323509 15.495493 12.337044
2009-07-24 07:04:09 51°16.038 2°53.426 22.1569 2.323613 15.495691 12.337044
2009-07-24 07:04:14 51°16.052 2°53.412 22.1591 2.323303 15.494541 12.337044
2009-07-24 07:04:19 51°16.066 2°53.399 22.1248 2.323199 15.497677 12.337044
2009-07-24 07:04:24 51°16.08 2°53.385 22.1677 2.322889 15.499029 12.337044
2009-07-24 07:04:29 51°16.094 2°53.371 22.1494 2.322889 15.499029 12.337044
2009-07-24 07:04:34 51°16.107 2°53.358 22.1454 2.323199 15.502126 12.337044
2009-07-24 07:04:39 51°16.121 2°53.344 22.161 2.322993 15.499227 12.337044
2009-07-24 07:04:44 51°16.135 2°53.33 22.1719 2.322993 15.498115 12.337044
2009-07-24 07:04:49 51°16.149 2°53.316 22.1707 2.323303 15.498709 12.337044
2009-07-24 07:04:54 51°16.163 2°53.302 22.1509 2.322993 15.495614 12.337044
2009-07-24 07:04:59 51°16.177 2°53.288 22.1444 2.322993 15.495614 12.337044
2009-07-24 07:05:04 51°16.191 2°53.273 22.1587 2.322993 15.496725 12.337044
2009-07-24 07:05:09 51°16.204 2°53.259 22.1666 2.322786 15.497997 12.337044
2009-07-24 07:05:14 51°16.218 2°53.245 22.155 2.322786 15.501056 12.337044
2009-07-24 07:05:19 51°16.232 2°53.231 22.1731 2.322889 15.504035 12.337044
2009-07-24 07:05:24 51°16.246 2°53.217 22.1678 2.322786 15.505785 12.337044
2009-07-24 07:05:29 51°16.26 2°53.203 22.1577 2.322786 15.505785 12.337044
2009-07-24 07:05:34 51°16.274 2°53.189 22.1673 2.322993 15.509522 12.337044
2009-07-24 07:05:39 51°16.288 2°53.175 22.1611 2.322993 15.512585 12.337044
2009-07-24 07:05:44 51°16.302 2°53.162 22.1665 2.32289 15.511273 12.337044
2009-07-24 07:05:49 51°16.315 2°53.147 22.1515 2.322786 15.507456 12.337044
2009-07-24 07:05:54 51°16.329 2°53.134 22.1549 2.322786 15.505229 12.337044
2009-07-24 07:05:59 51°16.343 2°53.12 22.1664 2.322786 15.505229 12.337044
2009-07-24 07:06:04 51°16.357 2°53.106 22.1793 2.322786 15.502168 12.337044
2009-07-24 07:06:09 51°16.371 2°53.093 22.1737 2.322786 15.501056 12.337044
2009-07-24 07:06:14 51°16.385 2°53.079 22.1745 2.322579 15.497879 12.337044
2009-07-24 07:06:19 51°16.399 2°53.066 22.1467 2.322579 15.498435 12.337044
2009-07-24 07:06:24 51°16.413 2°53.052 22.17 2.322476 15.500183 12.337044
2009-07-24 07:06:29 51°16.427 2°53.038 22.1624 2.322476 15.500183 12.337044
2009-07-24 07:06:34 51°16.441 2°53.025 22.1523 2.322579 15.504276 12.337044
2009-07-24 07:06:39 51°16.455 2°53.011 22.1788 2.322166 15.503207 12.337044
2009-07-24 07:06:44 51°16.469 2°52.998 22.1598 2.322476 15.508254 12.337044
2009-07-24 07:06:49 51°16.483 2°52.984 22.1442 2.322373 15.509449 12.337044
2009-07-24 07:06:54 51°16.497 2°52.97 22.1786 2.322373 15.512792 12.337044
2009-07-24 07:06:59 51°16.511 2°52.957 22.1774 2.322373 15.512792 12.337044
2009-07-24 07:07:04 51°16.525 2°52.943 22.1575 2.32227 15.513988 12.337044
2009-07-24 07:07:09 51°16.539 2°52.93 22.1648 2.322476 15.518565 12.337044
2009-07-24 07:07:14 51°16.553 2°52.916 22.1712 2.322063 15.519449 12.337044
2009-07-24 07:07:19 51°16.566 2°52.902 22.1794 2.32227 15.518449 12.30222
2009-07-24 07:07:24 51°16.58 2°52.889 22.1593 2.32196 15.513674 12.337044
2009-07-24 07:07:29 51°16.594 2°52.874 22.1678 2.32196 15.513674 12.337044
2009-07-24 07:07:34 51°16.608 2°52.86 22.1652 2.322063 15.511085 12.30222
2009-07-24 07:07:39 51°16.622 2°52.846 22.1698 2.322166 15.508775 12.337044
2009-07-24 07:07:44 51°16.635 2°52.833 22.1438 2.321856 15.505118 12.337044
2009-07-24 07:07:49 51°16.649 2°52.819 22.1785 2.321856 15.505675 12.337044
2009-07-24 07:07:54 51°16.663 2°52.806 22.179 2.322063 15.509134 12.337044
2009-07-24 07:07:59 51°16.677 2°52.793 22.162 2.322063 15.509134 12.337044
2009-07-24 07:08:04 51°16.691 2°52.779 22.1753 2.32196 15.510608 12.337044
2009-07-24 07:08:09 51°16.705 2°52.766 22.1804 2.321753 15.51077 12.337044
2009-07-24 07:08:14 51°16.719 2°52.752 22.1797 2.32165 15.513081 12.337044
2009-07-24 07:08:19 51°16.733 2°52.739 22.1642 2.321753 15.516625 12.30222
2009-07-24 07:08:24 51°16.746 2°52.726 22.179 2.32165 15.519776 12.337044
2009-07-24 07:08:29 51°16.761 2°52.714 22.1891 2.32165 15.519776 12.337044
2009-07-24 07:08:34 51°16.775 2°52.701 22.1903 2.321546 15.520416 12.337044
2009-07-24 07:08:39 51°16.789 2°52.689 22.1591 2.321443 15.520218 12.337044
2009-07-24 07:08:44 51°16.803 2°52.677 22.1883 2.32165 15.522009 12.30222
2009-07-24 07:08:49 51°16.817 2°52.665 22.1562 2.321443 15.51966 12.30222
2009-07-24 07:08:54 51°16.831 2°52.653 22.1618 2.321753 15.519973 12.30222
2009-07-24 07:08:59 51°16.845 2°52.64 22.1628 2.321753 15.519973 12.30222
2009-07-24 07:09:04 51°16.859 2°52.628 22.2005 2.32165 15.520055 12.337044
2009-07-24 07:09:09 51°16.873 2°52.617 22.1703 2.32134 15.516672 12.337044
2009-07-24 07:09:14 51°16.887 2°52.604 22.1811 2.32134 15.513325 12.30222
2009-07-24 07:09:19 51°16.901 2°52.592 22.1738 2.321133 15.512651 12.30222
2009-07-24 07:09:24 51°16.916 2°52.58 22.1537 2.32134 15.509701 12.30222
2009-07-24 07:09:29 51°16.93 2°52.569 22.1854 2.32134 15.509701 12.30222
2009-07-24 07:09:34 51°16.944 2°52.557 22.1781 2.321236 15.501703 12.30222
2009-07-24 07:09:39 51°16.958 2°52.546 22.1569 2.321546 15.501184 12.30222
2009-07-24 07:09:44 51°16.972 2°52.534 22.1855 2.321029 15.49741 12.30222
2009-07-24 07:09:49 51°16.987 2°52.523 22.1852 2.321133 15.498722 12.337044
2009-07-24 07:09:54 51°17.001 2°52.511 22.171 2.321029 15.502978 12.30222
2009-07-24 07:09:59 51°17.015 2°52.499 22.1738 2.321029 15.502978 12.30222
2009-07-24 07:10:04 51°17.029 2°52.487 22.1875 2.321134 15.536675 12.30222
2009-07-24 07:10:09 51°17.043 2°52.475 22.1724 2.320721 15.563931 12.30222
2009-07-24 07:10:14 51°17.057 2°52.463 22.1808 2.320617 15.553065 12.30222
2009-07-24 07:10:19 51°17.071 2°52.451 22.1789 2.320617 15.542131 12.30222
2009-07-24 07:10:24 51°17.085 2°52.44 22.1756 2.32072 15.537287 12.30222
2009-07-24 07:10:29 51°17.099 2°52.427 22.1681 2.32072 15.537287 12.30222
2009-07-24 07:10:34 51°17.113 2°52.415 22.1762 2.32072 15.533369 12.30222
2009-07-24 07:10:39 51°17.128 2°52.403 22.1733 2.320513 15.529898 12.30222
2009-07-24 07:10:44 51°17.142 2°52.39 22.1778 2.3201 15.526034 12.30222
2009-07-24 07:10:49 51°17.156 2°52.378 22.1739 2.32041 15.529142 12.30222
2009-07-24 07:10:54 51°17.17 2°52.365 22.1765 2.320513 15.530178 12.30222
2009-07-24 07:10:59 51°17.184 2°52.353 22.183 2.320513 15.530178 12.30222
2009-07-24 07:11:04 51°17.198 2°52.34 22.1787 2.320203 15.529587 12.30222
2009-07-24 07:11:09 51°17.212 2°52.328 22.1926 2.320203 15.530146 12.30222
2009-07-24 07:11:14 51°17.226 2°52.316 22.181 2.320307 15.532861 12.30222
2009-07-24 07:11:19 51°17.241 2°52.304 22.1524 2.3201 15.534706 12.30222
2009-07-24 07:11:24 51°17.255 2°52.293 22.1814 2.32041 15.537256 12.30222
2009-07-24 07:11:29 51°17.27 2°52.283 22.1619 2.32041 15.537256 12.30222
2009-07-24 07:11:34 51°17.284 2°52.274 22.1848 2.320204 15.535183 12.30222
2009-07-24 07:11:39 51°17.299 2°52.266 22.1855 2.319997 15.533669 12.337044
2009-07-24 07:11:44 51°17.315 2°52.259 22.1559 2.319997 15.538709 12.371868
2009-07-24 07:11:49 51°17.33 2°52.253 22.1633 2.31948 15.540247 12.337044
2009-07-24 07:11:54 51°17.345 2°52.248 22.1823 2.31979 15.54336 12.337044
2009-07-24 07:11:59 51°17.361 2°52.244 22.1636 2.31979 15.54336 12.337044
2009-07-24 07:12:04 51°17.376 2°52.239 22.1766 2.319687 15.541761 12.337044
2009-07-24 07:12:09 51°17.391 2°52.236 22.1899 2.319894 15.542715 12.337044
2009-07-24 07:12:14 51°17.407 2°52.233 22.1738 2.319687 15.54008 12.337044
2009-07-24 07:12:19 51°17.422 2°52.23 22.1842 2.319997 15.544313 12.337044
2009-07-24 07:12:24 51°17.438 2°52.229 22.1868 2.319687 15.541201 12.337044
2009-07-24 07:12:29 51°17.453 2°52.226 22.194 2.319687 15.541201 12.337044
2009-07-24 07:12:34 51°17.469 2°52.224 22.1781 2.319377 15.54033 12.337044
2009-07-24 07:12:39 51°17.484 2°52.224 22.1619 2.319377 15.546499 12.337044
2009-07-24 07:12:44 51°17.5 2°52.222 22.1869 2.31917 15.546386 12.337044
2009-07-24 07:12:49 51°17.516 2°52.221 22.1903 2.319377 15.548182 12.337044
2009-07-24 07:12:54 51°17.531 2°52.221 22.1752 2.319481 15.548379 12.337044
2009-07-24 07:12:59 51°17.547 2°52.22 22.189 2.319481 15.548379 12.337044
2009-07-24 07:13:04 51°17.562 2°52.219 22.1964 2.318964 15.542347 12.337044
2009-07-24 07:13:09 51°17.578 2°52.218 22.1785 2.31917 15.543582 12.337044
2009-07-24 07:13:14 51°17.593 2°52.218 22.1794 2.319067 15.542544 12.337044
2009-07-24 07:13:19 51°17.609 2°52.217 22.1973 2.319377 15.54678 12.337044
2009-07-24 07:13:24 51°17.625 2°52.217 22.1887 2.318654 15.545404 12.337044
2009-07-24 07:13:29 51°17.64 2°52.217 22.2101 2.318654 15.545404 12.337044
2009-07-24 07:13:34 51°17.656 2°52.217 22.1693 2.318861 15.550007 12.337044
2009-07-24 07:13:39 51°17.671 2°52.216 22.1987 2.319067 15.553488 12.337044
2009-07-24 07:13:44 51°17.687 2°52.215 22.1974 2.318551 15.547172 12.337044
2009-07-24 07:13:49 51°17.702 2°52.216 22.2117 2.319171 15.548912 12.30222
2009-07-24 07:13:54 51°17.718 2°52.214 22.1887 2.318344 15.542008 12.337044
2009-07-24 07:13:59 51°17.733 2°52.214 22.1747 2.318344 15.542008 12.337044
2009-07-24 07:14:04 51°17.748 2°52.213 22.1739 2.318654 15.542598 12.337044
2009-07-24 07:14:09 51°17.764 2°52.212 22.205 2.318757 15.541954 12.30222
2009-07-24 07:14:14 51°17.779 2°52.211 22.1966 2.31824 15.539007 12.337044
2009-07-24 07:14:19 51°17.795 2°52.21 22.1939 2.318344 15.538082 12.30222
2009-07-24 07:14:24 51°17.81 2°52.209 22.2031 2.317724 15.534378 12.30222
2009-07-24 07:14:29 51°17.826 2°52.207 22.1875 2.317724 15.534378 12.30222
2009-07-24 07:14:34 51°17.841 2°52.205 22.1879 2.318344 15.539484 12.30222
2009-07-24 07:14:39 51°17.857 2°52.203 22.1932 2.318137 15.53881 12.30222
2009-07-24 07:14:44 51°17.872 2°52.2 22.212 2.317827 15.53822 12.30222
2009-07-24 07:14:49 51°17.887 2°52.197 22.2012 2.317827 15.539061 12.30222
2009-07-24 07:14:54 51°17.903 2°52.193 22.2138 2.318137 15.54414 12.30222
2009-07-24 07:14:59 51°17.919 2°52.19 22.1946 2.318137 15.54414 12.30222
2009-07-24 07:15:04 51°17.934 2°52.187 22.212 2.317931 15.543747 12.30222
2009-07-24 07:15:09 51°17.949 2°52.182 22.2084 2.317414 15.533788 12.267396
2009-07-24 07:15:14 51°17.965 2°52.178 22.213 2.317724 15.529895 12.30222
2009-07-24 07:15:19 51°17.98 2°52.174 22.2031 2.317723 15.523455 12.267396
2009-07-24 07:15:24 51°17.996 2°52.169 22.2061 2.317517 15.521102 12.30222
2009-07-24 07:15:29 51°18.011 2°52.166 22.2154 2.317517 15.521102 12.30222
2009-07-24 07:15:34 51°18.027 2°52.162 22.2105 2.317207 15.519671 12.30222
2009-07-24 07:15:39 51°18.042 2°52.158 22.2077 2.317517 15.522501 12.267396
2009-07-24 07:15:44 51°18.057 2°52.154 22.1931 2.31731 15.523506 12.267396
2009-07-24 07:15:49 51°18.073 2°52.15 22.2148 2.317104 15.526192 12.30222
2009-07-24 07:15:54 51°18.089 2°52.147 22.2034 2.317104 15.534879 12.267396
2009-07-24 07:15:59 51°18.104 2°52.143 22.2085 2.317104 15.534879 12.267396
2009-07-24 07:16:04 51°18.12 2°52.14 22.218 2.317207 15.535637 12.267396
2009-07-24 07:16:09 51°18.135 2°52.137 22.2068 2.316897 15.535327 12.267396
2009-07-24 07:16:14 51°18.151 2°52.133 22.1975 2.317207 15.541809 12.267396
2009-07-24 07:16:19 51°18.166 2°52.129 22.2032 2.316897 15.54178 12.267396
2009-07-24 07:16:24 51°18.182 2°52.125 22.1989 2.316484 15.538748 12.267396
2009-07-24 07:16:29 51°18.197 2°52.123 22.2022 2.316484 15.538748 12.267396
2009-07-24 07:16:34 51°18.213 2°52.119 22.2201 2.317104 15.540209 12.267396
2009-07-24 07:16:39 51°18.229 2°52.116 22.2047 2.316587 15.532773 12.267396
2009-07-24 07:16:44 51°18.244 2°52.113 22.2004 2.316587 15.533334 12.267396
2009-07-24 07:16:49 51°18.26 2°52.11 22.203 2.316484 15.532015 12.267396
2009-07-24 07:16:54 51°18.276 2°52.107 22.2035 2.31669 15.532128 12.267396
2009-07-24 07:16:59 51°18.291 2°52.105 22.2055 2.31669 15.532128 12.267396
2009-07-24 07:17:04 51°18.307 2°52.101 22.2272 2.31669 15.527924 12.267396
2009-07-24 07:17:09 51°18.322 2°52.098 22.2187 2.31638 15.525371 12.267396
2009-07-24 07:17:14 51°18.338 2°52.094 22.2111 2.316897 15.53028 12.267396
2009-07-24 07:17:19 51°18.353 2°52.09 22.2127 2.316277 15.53078 12.267396
2009-07-24 07:17:24 51°18.369 2°52.088 22.2056 2.31638 15.53799 12.267396
2009-07-24 07:17:29 51°18.385 2°52.084 22.2209 2.31638 15.53799 12.267396
2009-07-24 07:17:34 51°18.4 2°52.08 22.1986 2.316277 15.5406 12.267396
2009-07-24 07:17:39 51°18.416 2°52.077 22.2215 2.316277 15.544813 12.267396
2009-07-24 07:17:44 51°18.431 2°52.074 22.2225 2.316277 15.54397 12.267396
2009-07-24 07:17:49 51°18.447 2°52.07 22.2253 2.316277 15.542004 12.232572
2009-07-24 07:17:54 51°18.463 2°52.067 22.2222 2.31576 15.534002 12.232572
2009-07-24 07:17:59 51°18.478 2°52.063 22.2274 2.31576 15.534002 12.232572
2009-07-24 07:18:04 51°18.494 2°52.059 22.2063 2.31576 15.532319 12.232572
2009-07-24 07:18:09 51°18.51 2°52.055 22.218 2.315967 15.534396 12.267396
2009-07-24 07:18:14 51°18.525 2°52.051 22.2115 2.315347 15.532934 12.232572
2009-07-24 07:18:19 51°18.541 2°52.048 22.2013 2.315244 15.535825 12.232572
2009-07-24 07:18:24 51°18.557 2°52.044 22.2118 2.316174 15.546022 12.232572
2009-07-24 07:18:29 51°18.572 2°52.041 22.239 2.316174 15.546022 12.232572
2009-07-24 07:18:34 51°18.588 2°52.038 22.2218 2.315554 15.543999 12.232572
2009-07-24 07:18:39 51°18.603 2°52.033 22.2299 2.315554 15.542313 12.232572
2009-07-24 07:18:44 51°18.619 2°52.03 22.2362 2.315657 15.541948 12.232572
2009-07-24 07:18:49 51°18.635 2°52.026 22.2139 2.315141 15.538998 12.232572
2009-07-24 07:18:54 51°18.65 2°52.023 22.2292 2.315451 15.545489 12.232572
2009-07-24 07:18:59 51°18.666 2°52.018 22.2236 2.315451 15.545489 12.232572
2009-07-24 07:19:04 51°18.681 2°52.014 22.2209 2.314934 15.549569 12.232572
2009-07-24 07:19:09 51°18.697 2°52.01 22.2172 2.315244 15.559167 12.232572
2009-07-24 07:19:14 51°18.713 2°52.006 22.2391 2.314728 15.559031 12.232572
2009-07-24 07:19:19 51°18.728 2°52.002 22.2172 2.314831 15.560918 12.232572
2009-07-24 07:19:24 51°18.744 2°51.998 22.2391 2.315038 15.555113 12.232572
2009-07-24 07:19:29 51°18.759 2°51.995 22.2136 2.315038 15.555113 12.232572
2009-07-24 07:19:34 51°18.775 2°51.991 22.2265 2.314727 15.546925 12.232572
2009-07-24 07:19:39 51°18.791 2°51.987 22.225 2.314211 15.538913 12.232572
2009-07-24 07:19:44 51°18.806 2°51.984 22.2343 2.314107 15.538154 12.232572
2009-07-24 07:19:49 51°18.822 2°51.981 22.2338 2.314624 15.542792 12.232572
2009-07-24 07:19:54 51°18.837 2°51.978 22.2321 2.314521 15.541752 12.232572
2009-07-24 07:19:59 51°18.853 2°51.975 22.2296 2.314521 15.541752 12.232572
2009-07-24 07:20:04 51°18.869 2°51.972 22.2249 2.314107 15.538997 12.232572
2009-07-24 07:20:09 51°18.884 2°51.969 22.2371 2.313281 15.532926 12.232572
2009-07-24 07:20:14 51°18.9 2°51.965 22.2442 2.314211 15.543692 12.232572
2009-07-24 07:20:19 51°18.915 2°51.963 22.248 2.313384 15.538463 12.197748
2009-07-24 07:20:24 51°18.931 2°51.959 22.222 2.313487 15.533882 12.197748
2009-07-24 07:20:29 51°18.946 2°51.956 22.2478 2.313487 15.533882 12.197748
2009-07-24 07:20:34 51°18.962 2°51.954 22.2272 2.314004 15.535709 12.232572
2009-07-24 07:20:39 51°18.977 2°51.951 22.2478 2.313901 15.535512 12.232572
2009-07-24 07:20:44 51°18.993 2°51.948 22.2491 2.313901 15.533827 12.197748
2009-07-24 07:20:49 51°19.008 2°51.945 22.2476 2.313797 15.528014 12.232572
2009-07-24 07:20:54 51°19.024 2°51.944 22.2335 2.31328 15.519733 12.197748
2009-07-24 07:20:59 51°19.04 2°51.94 22.2523 2.31328 15.519733 12.197748
2009-07-24 07:21:04 51°19.055 2°51.939 22.2422 2.31359 15.516961 12.197748
2009-07-24 07:21:09 51°19.071 2°51.935 22.2449 2.313177 15.513089 12.197748
2009-07-24 07:21:14 51°19.086 2°51.933 22.2266 2.313177 15.516172 12.197748
2009-07-24 07:21:19 51°19.102 2°51.93 22.2566 2.313177 15.519536 12.197748
2009-07-24 07:21:24 51°19.117 2°51.929 22.2446 2.31328 15.526748 12.197748
2009-07-24 07:21:29 51°19.133 2°51.926 22.2504 2.31328 15.526748 12.197748
2009-07-24 07:21:34 51°19.149 2°51.924 22.2383 2.313177 15.527954 12.197748
2009-07-24 07:21:39 51°19.164 2°51.92 22.2417 2.312971 15.529807 12.197748
2009-07-24 07:21:44 51°19.18 2°51.918 22.2582 2.312971 15.533178 12.197748
2009-07-24 07:21:49 51°19.195 2°51.915 22.255 2.313487 15.53866 12.197748
2009-07-24 07:21:54 51°19.211 2°51.912 22.2459 2.312764 15.533065 12.197748
2009-07-24 07:21:59 51°19.227 2°51.908 22.2483 2.312764 15.533065 12.197748
2009-07-24 07:22:04 51°19.242 2°51.905 22.2548 2.313487 15.53613 12.197748
2009-07-24 07:22:09 51°19.258 2°51.902 22.2592 2.312557 15.529019 12.197748
2009-07-24 07:22:14 51°19.274 2°51.899 22.2568 2.312971 15.532335 12.197748
2009-07-24 07:22:19 51°19.289 2°51.896 22.2579 2.312764 15.531098 12.197748
2009-07-24 07:22:24 51°19.305 2°51.893 22.2617 2.312247 15.527866 12.197748
2009-07-24 07:22:29 51°19.32 2°51.89 22.262 2.312247 15.527866 12.197748
2009-07-24 07:22:34 51°19.336 2°51.887 22.2481 2.312041 15.527471 12.197748
2009-07-24 07:22:39 51°19.352 2°51.884 22.2565 2.312454 15.531631 12.197748
2009-07-24 07:22:44 51°19.368 2°51.881 22.2367 2.311731 15.52969 12.197748
2009-07-24 07:22:49 51°19.383 2°51.878 22.2589 2.312144 15.534695 12.197748
2009-07-24 07:22:54 51°19.399 2°51.875 22.2581 2.312351 15.540997 12.197748
2009-07-24 07:22:59 51°19.414 2°51.871 22.247 2.312351 15.540997 12.197748
2009-07-24 07:23:04 51°19.43 2°51.867 22.2438 2.311731 15.540943 12.197748
2009-07-24 07:23:09 51°19.446 2°51.865 22.2586 2.312351 15.549445 12.197748
2009-07-24 07:23:14 51°19.461 2°51.861 22.2659 2.311318 15.544381 12.197748
2009-07-24 07:23:19 51°19.477 2°51.858 22.2557 2.312248 15.550658 12.197748
2009-07-24 07:23:24 51°19.492 2°51.855 22.2427 2.311938 15.548096 12.197748
2009-07-24 07:23:29 51°19.508 2°51.851 22.2679 2.311938 15.548096 12.197748
2009-07-24 07:23:34 51°19.524 2°51.849 22.2723 2.312144 15.549898 12.197748
2009-07-24 07:23:39 51°19.539 2°51.846 22.2559 2.311628 15.544126 12.197748
2009-07-24 07:23:44 51°19.555 2°51.844 22.2505 2.311938 15.542744 12.197748
2009-07-24 07:23:49 51°19.57 2°51.84 22.2521 2.311421 15.536693 12.197748
2009-07-24 07:23:54 51°19.586 2°51.838 22.2748 2.311937 15.537959 12.197748
2009-07-24 07:23:59 51°19.601 2°51.834 22.2727 2.311937 15.537959 12.197748
2009-07-24 07:24:04 51°19.617 2°51.832 22.2636 2.310801 15.527636 12.162924
2009-07-24 07:24:09 51°19.632 2°51.829 22.2709 2.311421 15.532192 12.162924
2009-07-24 07:24:14 51°19.648 2°51.826 22.2777 2.311317 15.532558 12.197748
2009-07-24 07:24:19 51°19.664 2°51.823 22.2616 2.311214 15.533205 12.162924
2009-07-24 07:24:24 51°19.679 2°51.819 22.2708 2.311111 15.532445 12.197748
2009-07-24 07:24:29 51°19.695 2°51.816 22.2726 2.311111 15.532445 12.197748
2009-07-24 07:24:34 51°19.71 2°51.813 22.271 2.310904 15.531207 12.162924
2009-07-24 07:24:39 51°19.726 2°51.81 22.2716 2.311214 15.533205 12.162924
2009-07-24 07:24:44 51°19.741 2°51.807 22.2852 2.310904 15.531489 12.162924
2009-07-24 07:24:49 51°19.757 2°51.804 22.265 2.311317 15.534527 12.197748
2009-07-24 07:24:54 51°19.773 2°51.8 22.2804 2.311111 15.533289 12.162924
2009-07-24 07:24:59 51°19.788 2°51.797 22.2844 2.311111 15.533289 12.162924
2009-07-24 07:25:04 51°19.804 2°51.794 22.2787 2.310594 15.527523 12.162924
2009-07-24 07:25:09 51°19.819 2°51.791 22.2836 2.310697 15.526595 12.162924
2009-07-24 07:25:14 51°19.835 2°51.788 22.2849 2.310491 15.525076 12.162924
2009-07-24 07:25:19 51°19.85 2°51.785 22.279 2.310594 15.525836 12.162924
2009-07-24 07:25:24 51°19.866 2°51.783 22.2731 2.309974 15.520718 12.162924
2009-07-24 07:25:29 51°19.882 2°51.779 22.2724 2.309974 15.520718 12.162924
2009-07-24 07:25:34 51°19.897 2°51.777 22.2925 2.310697 15.525471 12.162924
2009-07-24 07:25:39 51°19.913 2°51.774 22.2826 2.309767 15.518075 12.162924
2009-07-24 07:25:44 51°19.928 2°51.771 22.2815 2.310697 15.525471 12.162924
2009-07-24 07:25:49 51°19.944 2°51.768 22.2966 2.310077 15.523163 12.162924
2009-07-24 07:25:54 51°19.959 2°51.766 22.2961 2.309974 15.52409 12.162924
2009-07-24 07:25:59 51°19.975 2°51.762 22.282 2.309974 15.52409 12.162924
2009-07-24 07:26:04 51°19.99 2°51.759 22.2799 2.310077 15.526537 12.162924
2009-07-24 07:26:09 51°20.006 2°51.756 22.2819 2.310594 15.532023 12.162924
2009-07-24 07:26:14 51°20.021 2°51.752 22.2978 2.309354 15.524313 12.162924
2009-07-24 07:26:19 51°20.037 2°51.749 22.2992 2.309974 15.528309 12.162924
2009-07-24 07:26:24 51°20.052 2°51.746 22.285 2.310077 15.527662 12.580813
2009-07-24 07:26:29 51°20.068 2°51.742 22.2935 2.310077 15.527662 12.580813
2009-07-24 07:26:34 51°20.083 2°51.738 22.2965 2.309974 15.52409 14.600608
2009-07-24 07:26:39 51°20.099 2°51.735 22.2971 2.309561 15.519647 14.496136
2009-07-24 07:26:44 51°20.114 2°51.732 22.2956 2.309767 15.520885 14.391664
2009-07-24 07:26:49 51°20.13 2°51.729 22.2882 2.309354 15.518409 14.356839
2009-07-24 07:26:54 51°20.145 2°51.725 22.3036 2.310077 15.524007 14.426488
2009-07-24 07:26:59 51°20.161 2°51.721 22.3009 2.310077 15.524007 14.426488
2009-07-24 07:27:04 51°20.176 2°51.718 22.3076 2.309251 15.519336 14.496136
2009-07-24 07:27:09 51°20.192 2°51.714 22.2852 2.309251 15.520461 14.53096
2009-07-24 07:27:14 51°20.208 2°51.71 22.2906 2.309354 15.521782 14.600608
2009-07-24 07:27:19 51°20.223 2°51.706 22.2952 2.308941 15.519306 14.670256
2009-07-24 07:27:24 51°20.239 2°51.701 22.3011 2.309147 15.523075 14.70508
2009-07-24 07:27:29 51°20.255 2°51.698 22.3061 2.309147 15.523075 14.70508
2009-07-24 07:27:34 51°20.27 2°51.694 22.2967 2.309251 15.525523 14.774728
2009-07-24 07:27:39 51°20.286 2°51.69 22.299 2.309561 15.529209 14.844376
2009-07-24 07:27:44 51°20.302 2°51.687 22.2977 2.308734 15.523693 14.914024
2009-07-24 07:27:49 51°20.317 2°51.683 22.3039 2.308734 15.524537 14.983672
2009-07-24 07:27:54 51°20.333 2°51.68 22.3121 2.309147 15.525607 15.088145
2009-07-24 07:27:59 51°20.349 2°51.677 22.2968 2.309147 15.525607 15.088145
2009-07-24 07:28:04 51°20.364 2°51.674 22.2977 2.309044 15.523159 15.157793
2009-07-24 07:28:09 51°20.38 2°51.671 22.2958 2.308837 15.520796 15.297089
2009-07-24 07:28:14 51°20.396 2°51.668 22.3088 2.308321 15.517841 15.401561
2009-07-24 07:28:19 51°20.411 2°51.665 22.3155 2.309354 15.526282 15.506033
2009-07-24 07:28:24 51°20.427 2°51.662 22.3038 2.308321 15.51981 15.610505
2009-07-24 07:28:29 51°20.443 2°51.659 22.3049 2.308321 15.51981 15.610505
2009-07-24 07:28:34 51°20.458 2°51.656 22.3017 2.309147 15.526732 15.714978
2009-07-24 07:28:39 51°20.474 2°51.653 22.3071 2.308217 15.521581 15.889098
2009-07-24 07:28:44 51°20.49 2°51.649 22.321 2.308217 15.523832 15.99357
2009-07-24 07:28:49 51°20.506 2°51.646 22.315 2.308527 15.526957 16.063218
2009-07-24 07:28:54 51°20.521 2°51.642 22.3217 2.308424 15.526478 16.16769
2009-07-24 07:28:59 51°20.537 2°51.639 22.3214 2.308424 15.526478 16.16769
2009-07-24 07:29:04 51°20.553 2°51.637 22.3233 2.308217 15.524958 16.306987
2009-07-24 07:29:09 51°20.568 2°51.633 22.3135 2.308424 15.527604 16.411459
2009-07-24 07:29:14 51°20.584 2°51.63 22.3233 2.308321 15.526844 16.481107
2009-07-24 07:29:19 51°20.6 2°51.626 22.32 2.308217 15.524395 16.585579
2009-07-24 07:29:24 51°20.616 2°51.623 22.3261 2.307907 15.520708 16.690051
2009-07-24 07:29:29 51°20.631 2°51.62 22.3238 2.307907 15.520708 16.690051
2009-07-24 07:29:34 51°20.647 2°51.617 22.33 2.307804 15.518542 16.794523
2009-07-24 07:29:39 51°20.663 2°51.614 22.3145 2.308114 15.52054 16.898995
2009-07-24 07:29:44 51°20.679 2°51.61 22.3156 2.308114 15.520821 17.003468
2009-07-24 07:29:49 51°20.694 2°51.607 22.3319 2.308424 15.524789 17.073116
2009-07-24 07:29:54 51°20.71 2°51.604 22.3164 2.307597 15.519835 17.177588
2009-07-24 07:29:59 51°20.726 2°51.6 22.3107 2.307597 15.519835 17.177588
2009-07-24 07:30:04 51°20.742 2°51.597 22.3181 2.308114 15.525042 17.28206
2009-07-24 07:30:09 51°20.757 2°51.594 22.315 2.308011 15.525127 17.351708
2009-07-24 07:30:14 51°20.773 2°51.591 22.3309 2.307081 15.518285 17.421356
2009-07-24 07:30:19 51°20.788 2°51.589 22.3331 2.307701 15.522283 17.491004
2009-07-24 07:30:24 51°20.804 2°51.587 22.3338 2.307597 15.520679 17.595476
2009-07-24 07:30:29 51°20.82 2°51.583 22.3311 2.307597 15.520679 17.595476
2009-07-24 07:30:34 51°20.836 2°51.581 22.3378 2.306874 15.517328 17.665125
2009-07-24 07:30:39 51°20.852 2°51.578 22.3369 2.307494 15.522452 17.734773
2009-07-24 07:30:44 51°20.868 2°51.575 22.3291 2.307804 15.525014 17.804421
2009-07-24 07:30:49 51°20.884 2°51.573 22.3377 2.307494 15.524141 17.874069
2009-07-24 07:30:54 51°20.9 2°51.57 22.3405 2.307391 15.526197 17.943717
2009-07-24 07:30:59 51°20.915 2°51.567 22.326 2.307391 15.526197 17.943717
2009-07-24 07:31:04 51°20.931 2°51.564 22.3363 2.307494 15.528365 18.013365
2009-07-24 07:31:09 51°20.947 2°51.562 22.341 2.307081 15.523352 18.083013
2009-07-24 07:31:14 51°20.963 2°51.559 22.3343 2.307391 15.523099 18.187485
2009-07-24 07:31:19 51°20.978 2°51.556 22.3228 2.306667 15.514682 18.257134
2009-07-24 07:31:24 51°20.993 2°51.555 22.3302 2.306977 15.516118 18.326782
2009-07-24 07:31:29 51°21.009 2°51.551 22.3312 2.306977 15.516118 18.326782
2009-07-24 07:31:34 51°21.025 2°51.549 22.3458 2.307494 15.521607 18.361606
2009-07-24 07:31:39 51°21.04 2°51.546 22.3448 2.306771 15.518537 18.431254
2009-07-24 07:31:44 51°21.056 2°51.543 22.3447 2.306977 15.522873 18.500902
2009-07-24 07:31:49 51°21.072 2°51.54 22.3455 2.306254 15.524592 18.57055
2009-07-24 07:31:54 51°21.088 2°51.537 22.3404 2.306874 15.532821 18.640198
2009-07-24 07:31:59 51°21.103 2°51.534 22.3399 2.306874 15.532821 18.640198
2009-07-24 07:32:04 51°21.119 2°51.531 22.3443 2.306978 15.537814 18.675022
2009-07-24 07:32:09 51°21.135 2°51.529 22.3438 2.306461 15.536548 18.709846
2009-07-24 07:32:14 51°21.15 2°51.525 22.346 2.306668 15.537223 18.779494
2009-07-24 07:32:19 51°21.166 2°51.524 22.3575 2.307184 15.537643 18.535726
2009-07-24 07:32:24 51°21.182 2°51.52 22.3559 2.306668 15.529889 18.849142
2009-07-24 07:32:29 51°21.197 2°51.518 22.3422 2.306668 15.529889 18.849142
2009-07-24 07:32:34 51°21.213 2°51.515 22.3497 2.306461 15.526113 18.883966
2009-07-24 07:32:39 51°21.228 2°51.512 22.352 2.305944 15.520056 18.918791
2009-07-24 07:32:44 51°21.244 2°51.509 22.3566 2.306151 15.521577 18.953615
2009-07-24 07:32:49 51°21.26 2°51.506 22.3617 2.306461 15.523859 18.988439
2009-07-24 07:32:54 51°21.276 2°51.504 22.3541 2.305841 15.522112 19.058087
2009-07-24 07:32:59 51°21.291 2°51.501 22.3507 2.305841 15.522112 19.058087
2009-07-24 07:33:04 51°21.307 2°51.498 22.354 2.305531 15.520957 19.092911
2009-07-24 07:33:09 51°21.323 2°51.497 22.346 2.306461 15.52865 19.127735
2009-07-24 07:33:14 51°21.338 2°51.494 22.3493 2.305841 15.52493 19.197383
2009-07-24 07:33:19 51°21.354 2°51.491 22.361 2.306564 15.53223 19.232207
2009-07-24 07:33:24 51°21.369 2°51.489 22.3479 2.305944 15.526537 19.267031
2009-07-24 07:33:29 51°21.385 2°51.485 22.3706 2.305944 15.526537 19.267031
2009-07-24 07:33:34 51°21.401 2°51.482 22.3646 2.306151 15.528059 19.336679
2009-07-24 07:33:39 51°21.417 2°51.478 22.3615 2.306461 15.528932 19.336679
2009-07-24 07:33:44 51°21.432 2°51.475 22.3716 2.306048 15.524761 19.371503
2009-07-24 07:33:49 51°21.448 2°51.471 22.3735 2.306771 15.53206 19.406327
2009-07-24 07:33:54 51°21.464 2°51.469 22.3622 2.305944 15.526255 19.441151
2009-07-24 07:33:59 51°21.479 2°51.465 22.3624 2.305944 15.526255 19.441151
2009-07-24 07:34:04 51°21.495 2°51.463 22.3599 2.306048 15.52617 19.475975
2009-07-24 07:34:09 51°21.511 2°51.459 22.3663 2.305738 15.52276 19.475975
2009-07-24 07:34:14 51°21.526 2°51.456 22.3602 2.304911 15.515829 19.510799
2009-07-24 07:34:19 51°21.542 2°51.453 22.377 2.306048 15.523634 19.545624
2009-07-24 07:34:24 51°21.557 2°51.45 22.3748 2.306151 15.523831 19.545624
2009-07-24 07:34:29 51°21.573 2°51.448 22.3668 2.306151 15.523831 19.545624
2009-07-24 07:34:34 51°21.589 2°51.444 22.3733 2.305841 15.522394 19.580448
2009-07-24 07:34:39 51°21.604 2°51.442 22.3803 2.305531 15.522648 19.615272
2009-07-24 07:34:44 51°21.62 2°51.438 22.375 2.305221 15.52262 19.650096
2009-07-24 07:34:49 51°21.635 2°51.435 22.3595 2.305428 15.525833 19.650096
2009-07-24 07:34:54 51°21.651 2°51.432 22.3686 2.305841 15.529441 19.68492
2009-07-24 07:34:59 51°21.666 2°51.429 22.369 2.305841 15.529441 19.68492
2009-07-24 07:35:04 51°21.682 2°51.427 22.3873 2.306048 15.530682 19.824216
2009-07-24 07:35:09 51°21.697 2°51.423 22.3707 2.305324 15.523662 31.142033
2009-07-24 07:35:14 51°21.713 2°51.42 22.3837 2.305944 15.526255 29.400831
2009-07-24 07:35:19 51°21.728 2°51.418 22.3746 2.304704 15.514871 27.868572
2009-07-24 07:35:24 51°21.744 2°51.415 22.3908 2.304601 15.513829 26.440786
2009-07-24 07:35:29 51°21.759 2°51.413 22.3678 2.304601 15.513829 26.440786
2009-07-24 07:35:34 51°21.774 2°51.409 22.3704 2.305117 15.516787 25.883601
2009-07-24 07:35:39 51°21.79 2°51.407 22.3863 2.305117 15.516506 25.500537
2009-07-24 07:35:44 51°21.805 2°51.404 22.3903 2.305428 15.519633 25.326416
2009-07-24 07:35:49 51°21.821 2°51.401 22.3776 2.304911 15.517519 24.943352
2009-07-24 07:35:54 51°21.836 2°51.399 22.3917 2.305324 15.521971 24.769232
2009-07-24 07:35:59 51°21.852 2°51.396 22.3863 2.305324 15.521971 24.769232
2009-07-24 07:36:04 51°21.867 2°51.394 22.3918 2.304188 15.517546 24.629935
2009-07-24 07:36:09 51°21.883 2°51.392 22.3851 2.305428 15.527243 24.281695
2009-07-24 07:36:14 51°21.899 2°51.388 22.392 2.303981 15.519125 24.560287
2009-07-24 07:36:19 51°21.914 2°51.386 22.4053 2.305634 15.534691 24.212047
2009-07-24 07:36:24 51°21.93 2°51.384 22.3848 2.303878 15.528802 24.351343
2009-07-24 07:36:29 51°21.945 2°51.38 22.389 2.303878 15.528802 24.351343
2009-07-24 07:36:34 51°21.961 2°51.378 22.3793 2.301088 15.512187 24.142399
2009-07-24 07:36:39 51°21.976 2°51.375 22.4052 2.304188 15.534759 24.420991
2009-07-24 07:36:44 51°21.992 2°51.373 22.3846 2.305015 15.540855 24.351343
2009-07-24 07:36:49 51°22.008 2°51.37 22.3912 2.304498 15.536763 24.629935
2009-07-24 07:36:54 51°22.023 2°51.368 22.3967 2.304188 15.534477 24.699583
2009-07-24 07:36:59 51°22.039 2°51.366 22.3994 2.304188 15.534477 24.699583
2009-07-24 07:37:04 51°22.054 2°51.363 22.3913 2.303775 15.531712 24.769232
2009-07-24 07:37:09 51°22.07 2°51.362 22.3855 2.304291 15.534674 24.943352
2009-07-24 07:37:14 51°22.085 2°51.36 22.404 2.304291 15.533544 24.908528
2009-07-24 07:37:19 51°22.101 2°51.357 22.3939 2.304705 15.533202 25.117472
2009-07-24 07:37:24 51°22.116 2°51.354 22.3852 2.303774 15.525218 25.256768
2009-07-24 07:37:29 51°22.132 2°51.353 22.407 2.303774 15.525218 25.256768
2009-07-24 07:37:34 51°22.147 2°51.351 22.4067 2.304394 15.527529 25.396065
2009-07-24 07:37:39 51°22.163 2°51.348 22.4061 2.304084 15.525527 25.465713
2009-07-24 07:37:44 51°22.178 2°51.346 22.4014 2.304188 15.525442 25.430889
2009-07-24 07:37:49 51°22.194 2°51.343 22.4089 2.303361 15.518223 25.813953
2009-07-24 07:37:54 51°22.209 2°51.341 22.4116 2.303878 15.521465 25.709481
2009-07-24 07:37:59 51°22.225 2°51.338 22.4064 2.303878 15.521465 25.709481
2009-07-24 07:38:04 51°22.24 2°51.336 22.4042 2.303981 15.522227 25.883601
2009-07-24 07:38:09 51°22.256 2°51.333 22.4142 2.303878 15.521183 26.022897
2009-07-24 07:38:14 51°22.271 2°51.331 22.4212 2.304498 15.52688 26.162194
2009-07-24 07:38:19 51°22.287 2°51.329 22.42 2.299641 15.491943 26.266666
2009-07-24 07:38:24 51°22.302 2°51.326 22.4123 2.303154 15.51811 26.266666
2009-07-24 07:38:29 51°22.318 2°51.324 22.4022 2.303154 15.51811 26.266666
2009-07-24 07:38:34 51°22.333 2°51.321 22.4131 2.303568 15.52031 26.405962
2009-07-24 07:38:39 51°22.349 2°51.318 22.4084 2.303568 15.519745 26.510434
2009-07-24 07:38:44 51°22.365 2°51.315 22.4177 2.303258 15.517461 26.614906
2009-07-24 07:38:49 51°22.38 2°51.314 22.4015 2.303154 15.516982 26.684555
2009-07-24 07:38:54 51°22.396 2°51.311 22.4153 2.302741 15.518731 26.928323
2009-07-24 07:38:59 51°22.412 2°51.308 22.4234 2.302741 15.518731 26.928323
2009-07-24 07:39:04 51°22.427 2°51.306 22.4134 2.302844 15.519493 26.893499
2009-07-24 07:39:09 51°22.443 2°51.303 22.4023 2.302638 15.516559 27.032795
2009-07-24 07:39:14 51°22.458 2°51.3 22.4267 2.302534 15.514388 27.102443
2009-07-24 07:39:19 51°22.474 2°51.298 22.4175 2.303464 15.521241 27.137267
2009-07-24 07:39:24 51°22.489 2°51.295 22.4155 2.302948 15.517715 27.381036
2009-07-24 07:39:29 51°22.505 2°51.293 22.4135 2.302948 15.517715 27.381036
2009-07-24 07:39:34 51°22.52 2°51.291 22.421 2.303361 15.519633 27.381036
2009-07-24 07:39:39 51°22.536 2°51.288 22.4276 2.302431 15.511935 27.41586
2009-07-24 07:39:44 51°22.551 2°51.286 22.4247 2.302844 15.51498 27.555156
2009-07-24 07:39:49 51°22.567 2°51.283 22.4331 2.302948 15.515741 27.694452
2009-07-24 07:39:54 51°22.583 2°51.281 22.4167 2.302638 15.513739 27.729276
2009-07-24 07:39:59 51°22.598 2°51.278 22.4229 2.302638 15.513739 27.729276
2009-07-24 07:40:04 51°22.614 2°51.275 22.4232 2.303568 15.519745 27.798924
2009-07-24 07:40:09 51°22.629 2°51.271 22.4315 2.302741 15.513655 28.181989
2009-07-24 07:40:14 51°22.644 2°51.27 22.4221 2.303051 15.515093 27.798924
2009-07-24 07:40:19 51°22.66 2°51.265 22.4286 2.302328 15.508073 28.321285
2009-07-24 07:40:24 51°22.675 2°51.264 22.4411 2.302017 15.503818 28.251637
2009-07-24 07:40:29 51°22.691 2°51.261 22.4407 2.302017 15.503818 28.251637
2009-07-24 07:40:34 51°22.706 2°51.259 22.4317 2.302327 15.505256 28.112341
2009-07-24 07:40:39 51°22.721 2°51.256 22.4262 2.301604 15.498803 28.390933
2009-07-24 07:40:44 51°22.737 2°51.253 22.4538 2.302017 15.503255 28.599877
2009-07-24 07:40:49 51°22.752 2°51.252 22.4189 2.302327 15.504975 28.390933
2009-07-24 07:40:54 51°22.767 2°51.248 22.4312 2.302534 15.509314 28.599877
2009-07-24 07:40:59 51°22.783 2°51.247 22.4428 2.302534 15.509314 28.599877
2009-07-24 07:41:04 51°22.798 2°51.244 22.4429 2.302638 15.510075 28.599877
2009-07-24 07:41:09 51°22.814 2°51.242 22.4325 2.302431 15.509962 28.808822
2009-07-24 07:41:14 51°22.829 2°51.239 22.4276 2.302224 15.509003 28.808822
2009-07-24 07:41:19 51°22.845 2°51.237 22.437 2.300984 15.511989 28.70435
2009-07-24 07:41:24 51°22.86 2°51.235 22.4258 2.301398 15.526333 29.157062
2009-07-24 07:41:29 51°22.876 2°51.232 22.4472 2.301398 15.526333 29.157062
2009-07-24 07:41:34 51°22.891 2°51.231 22.4522 2.302225 15.534695 28.948118
2009-07-24 07:41:39 51°22.906 2°51.228 22.4427 2.302018 15.529777 29.157062
2009-07-24 07:41:44 51°22.922 2°51.226 22.442 2.302225 15.526497 29.191886
2009-07-24 07:41:49 51°22.937 2°51.224 22.4456 2.301294 15.515121 29.470479
2009-07-24 07:41:54 51°22.953 2°51.222 22.4476 2.301604 15.515431 29.331183
2009-07-24 07:41:59 51°22.968 2°51.219 22.446 2.301604 15.515431 29.331183
2009-07-24 07:42:04 51°22.984 2°51.217 22.4553 2.301191 15.511256 29.435655
2009-07-24 07:42:09 51°22.999 2°51.215 22.4486 2.301604 15.514021 29.435655
2009-07-24 07:42:14 51°23.015 2°51.212 22.4288 2.300984 15.508887 29.853543
2009-07-24 07:42:19 51°23.03 2°51.21 22.4548 2.301811 15.515544 29.470479
2009-07-24 07:42:24 51°23.046 2°51.208 22.4391 2.301811 15.51498 29.749071
2009-07-24 07:42:29 51°23.061 2°51.207 22.4523 2.301811 15.51498 29.749071
2009-07-24 07:42:34 51°23.076 2°51.204 22.4524 2.300571 15.505558 29.923192
2009-07-24 07:42:39 51°23.092 2°51.203 22.4503 2.300984 15.509169 29.853543
2009-07-24 07:42:44 51°23.107 2°51.201 22.4513 2.301191 15.51041 29.99284
2009-07-24 07:42:49 51°23.122 2°51.198 22.4578 2.301811 15.515262 29.923192
2009-07-24 07:42:54 51°23.137 2°51.197 22.4579 2.300778 15.507645 30.271432
2009-07-24 07:42:59 51°23.153 2°51.195 22.4689 2.300778 15.507645 30.271432
2009-07-24 07:43:04 51°23.168 2°51.193 22.4526 2.301398 15.512497 30.097312
2009-07-24 07:43:09 51°23.183 2°51.191 22.4439 2.301398 15.511651 30.132136
2009-07-24 07:43:14 51°23.199 2°51.189 22.4585 2.300468 15.506206 30.306256
2009-07-24 07:43:19 51°23.214 2°51.187 22.4495 2.301191 15.512949 30.201784
2009-07-24 07:43:24 51°23.229 2°51.185 22.4649 2.301398 15.514754 30.306256
2009-07-24 07:43:29 51°23.244 2°51.184 22.4515 2.301398 15.514754 30.306256
2009-07-24 07:43:34 51°23.26 2°51.181 22.4659 2.300881 15.511228 30.445552
2009-07-24 07:43:39 51°23.275 2°51.18 22.4574 2.301398 15.515883 30.306256
2009-07-24 07:43:44 51°23.29 2°51.178 22.4701 2.300881 15.512356 30.5152
2009-07-24 07:43:49 51°23.306 2°51.177 22.4687 2.300778 15.511594 30.584849
2009-07-24 07:43:54 51°23.321 2°51.174 22.4727 2.301088 15.514162 30.34108
2009-07-24 07:43:59 51°23.337 2°51.173 22.4523 2.301088 15.514162 30.34108
2009-07-24 07:44:04 51°23.352 2°51.17 22.4777 2.300674 15.512525 30.689321
2009-07-24 07:44:09 51°23.367 2°51.169 22.475 2.300881 15.514896 30.375904
2009-07-24 07:44:14 51°23.382 2°51.166 22.4575 2.300985 15.516787 30.550024
2009-07-24 07:44:19 51°23.398 2°51.164 22.4676 2.300261 15.512864 30.689321
2009-07-24 07:44:24 51°23.413 2°51.161 22.4713 2.300261 15.514558 30.619673
2009-07-24 07:44:29 51°23.428 2°51.159 22.4602 2.300261 15.514558 30.619673
2009-07-24 07:44:34 51°23.444 2°51.156 22.4696 2.300365 15.516168 30.724145
2009-07-24 07:44:39 51°23.459 2°51.154 22.4651 2.299951 15.514248 30.758969
2009-07-24 07:44:44 51°23.474 2°51.152 22.4669 2.300055 15.515576 30.654497
2009-07-24 07:44:49 51°23.49 2°51.15 22.4655 2.300468 15.51806 30.793793
2009-07-24 07:44:54 51°23.505 2°51.148 22.4747 2.300055 15.514446 30.724145
2009-07-24 07:44:59 51°23.52 2°51.147 22.4669 2.300055 15.514446 30.724145
2009-07-24 07:45:04 51°23.535 2°51.143 22.4774 2.300054 15.512469 30.863441
2009-07-24 07:45:09 51°23.551 2°51.142 22.4646 2.300571 15.515151 30.793793
2009-07-24 07:45:14 51°23.566 2°51.139 22.4795 2.299538 15.508094 30.967913
2009-07-24 07:45:19 51°23.582 2°51.137 22.4848 2.300365 15.517862 30.793793
2009-07-24 07:45:24 51°23.597 2°51.134 22.463 2.299538 15.512047 31.072385
2009-07-24 07:45:29 51°23.612 2°51.132 22.4873 2.299538 15.512047 31.072385
2009-07-24 07:45:34 51°23.628 2°51.13 22.4794 2.300158 15.515208 30.863441
2009-07-24 07:45:39 51°23.643 2°51.128 22.4895 2.299538 15.508377 30.933089
2009-07-24 07:45:44 51°23.659 2°51.126 22.4822 2.299641 15.507728 31.002737
2009-07-24 07:45:49 51°23.675 2°51.123 22.4805 2.300985 15.51707 30.724145
2009-07-24 07:45:54 51°23.69 2°51.12 22.4596 2.299434 15.505357 31.211682
2009-07-24 07:45:59 51°23.705 2°51.117 22.4826 2.299434 15.505357 31.211682
2009-07-24 07:46:04 51°23.721 2°51.116 22.4777 2.300158 15.512385 31.072385
2009-07-24 07:46:09 51°23.736 2°51.113 22.4797 2.299228 15.508066 30.967913
2009-07-24 07:46:14 51°23.752 2°51.11 22.4914 2.298918 15.506062 31.072385
2009-07-24 07:46:19 51°23.767 2°51.108 22.4967 2.299745 15.513571 31.107209
2009-07-24 07:46:24 51°23.783 2°51.106 22.4876 2.299538 15.512329 30.898265
2009-07-24 07:46:29 51°23.798 2°51.102 22.4729 2.299538 15.512329 30.898265
2009-07-24 07:46:34 51°23.814 2°51.101 22.4925 2.299228 15.510042 31.211682
2009-07-24 07:46:39 51°23.829 2°51.099 22.4804 2.299641 15.513374 30.933089
2009-07-24 07:46:44 51°23.845 2°51.096 22.5021 2.299331 15.511652 31.002737
2009-07-24 07:46:49 51°23.86 2°51.095 22.4892 2.300055 15.517835 31.002737
2009-07-24 07:46:54 51°23.876 2°51.092 22.4935 2.300055 15.518966 31.002737
2009-07-24 07:46:59 51°23.891 2°51.09 22.4834 2.300055 15.518966 31.002737
2009-07-24 07:47:04 51°23.907 2°51.087 22.488 2.299331 15.514476 31.107209
2009-07-24 07:47:09 51°23.922 2°51.085 22.4901 2.298918 15.511426 31.037561
2009-07-24 07:47:14 51°23.938 2°51.082 22.4876 2.298711 15.510184 31.072385
2009-07-24 07:47:19 51°23.954 2°51.081 22.5136 2.299641 15.517329 31.037561
2009-07-24 07:47:24 51°23.969 2°51.078 22.52 2.299228 15.513714 31.002737
2009-07-24 07:47:29 51°23.985 2°51.076 22.4974 2.299228 15.513714 31.002737
2009-07-24 07:47:34 51°24 2°51.072 22.507 2.298091 15.504762 31.107209
2009-07-24 07:47:39 51°24.016 2°51.071 22.5092 2.298608 15.509421 30.863441
2009-07-24 07:47:44 51°24.031 2°51.068 22.5064 2.298505 15.509224 31.176857
2009-07-24 07:47:49 51°24.047 2°51.066 22.5068 2.299538 15.519392 30.793793
2009-07-24 07:47:54 51°24.062 2°51.064 22.5038 2.298505 15.510919 31.246506
2009-07-24 07:47:59 51°24.078 2°51.06 22.5068 2.298505 15.510919 31.246506
2009-07-24 07:48:04 51°24.093 2°51.06 22.4997 2.283417 15.399911 30.828617
2009-07-24 07:48:09 51°24.108 2°51.056 22.498 2.298401 15.503944 31.316154
2009-07-24 07:48:14 51°24.123 2°51.055 22.5097 2.298814 15.505017 30.967913
2009-07-24 07:48:19 51°24.138 2°51.051 22.5121 2.298918 15.500419 31.037561
2009-07-24 07:48:24 51°24.154 2°51.05 22.5019 2.298194 15.494522 31.350978
2009-07-24 07:48:29 51°24.169 2°51.048 22.5279 2.298194 15.494522 31.350978
2009-07-24 07:48:34 51°24.184 2°51.046 22.5084 2.297988 15.493281 30.933089
2009-07-24 07:48:39 51°24.2 2°51.042 22.5137 2.297678 15.490995 31.107209
2009-07-24 07:48:44 51°24.215 2°51.041 22.5221 2.297988 15.494126 31.072385
2009-07-24 07:48:49 51°24.231 2°51.039 22.5243 2.298091 15.496862 31.107209
2009-07-24 07:48:54 51°24.246 2°51.036 22.5199 2.297368 15.49322 31.142033
2009-07-24 07:48:59 51°24.261 2°51.034 22.5198 2.297368 15.49322 31.142033
2009-07-24 07:49:04 51°24.276 2°51.032 22.5165 2.298504 15.502731 31.002737
2009-07-24 07:49:09 51°24.292 2°51.03 22.5258 2.297471 15.49652 31.072385
2009-07-24 07:49:14 51°24.307 2°51.028 22.5226 2.297161 15.496772 31.107209
2009-07-24 07:49:19 51°24.322 2°51.025 22.51 2.297161 15.498465 30.933089
2009-07-24 07:49:24 51°24.338 2°51.023 22.5204 2.297678 15.505383 31.350978
2009-07-24 07:49:29 51°24.353 2°51.021 22.5453 2.297678 15.505383 31.350978
2009-07-24 07:49:34 51°24.368 2°51.019 22.4998 2.293028 15.472482 30.898265
2009-07-24 07:49:39 51°24.384 2°51.016 22.5404 2.297161 15.504394 31.246506
2009-07-24 07:49:44 51°24.399 2°51.015 22.506 2.297265 15.503745 31.037561
2009-07-24 07:49:49 51°24.414 2°51.012 22.529 2.297161 15.499594 31.002737
2009-07-24 07:49:54 51°24.429 2°51.009 22.5197 2.297058 15.496856 31.037561
2009-07-24 07:49:59 51°24.445 2°51.008 22.533 2.297058 15.496856 31.037561
2009-07-24 07:50:04 51°24.46 2°51.005 22.546 2.297471 15.499624 31.002737
2009-07-24 07:50:09 51°24.475 2°51.003 22.5247 2.297574 15.498975 30.828617
2009-07-24 07:50:14 51°24.49 2°51 22.5361 2.297368 15.498861 31.176857
2009-07-24 07:50:19 51°24.506 2°50.998 22.5283 2.297161 15.499312 30.898265
2009-07-24 07:50:24 51°24.521 2°50.994 22.5255 2.297058 15.500526 31.142033
2009-07-24 07:50:29 51°24.536 2°50.993 22.5445 2.297058 15.500526 31.142033
2009-07-24 07:50:34 51°24.552 2°50.99 22.5255 2.297161 15.502417 30.967913
2009-07-24 07:50:39 51°24.567 2°50.988 22.548 2.297575 15.507445 31.037561
2009-07-24 07:50:44 51°24.582 2°50.985 22.542 2.296851 15.504931 31.107209
2009-07-24 07:50:49 51°24.597 2°50.983 22.5299 2.297988 15.516432 30.793793
2009-07-24 07:50:54 51°24.612 2°50.981 22.5329 2.297058 15.510979 31.107209
2009-07-24 07:50:59 51°24.628 2°50.979 22.5362 2.297058 15.510979 31.107209
2009-07-24 07:51:04 51°24.643 2°50.976 22.5404 2.296748 15.504733 30.967913
2009-07-24 07:51:09 51°24.658 2°50.975 22.5359 2.296748 15.502191 30.967913
2009-07-24 07:51:14 51°24.674 2°50.972 22.5487 2.297575 15.507728 30.933089
2009-07-24 07:51:19 51°24.689 2°50.97 22.5323 2.296748 15.502473 31.037561
2009-07-24 07:51:24 51°24.704 2°50.967 22.5521 2.296541 15.50462 30.967913
2009-07-24 07:51:29 51°24.72 2°50.965 22.5391 2.296541 15.50462 30.967913
2009-07-24 07:51:34 51°24.735 2°50.962 22.5414 2.296748 15.510386 31.037561
2009-07-24 07:51:39 51°24.75 2°50.96 22.5529 2.296335 15.511576 31.002737
2009-07-24 07:51:44 51°24.765 2°50.958 22.5333 2.296335 15.514406 30.933089
2009-07-24 07:51:49 51°24.78 2°50.956 22.5463 2.296335 15.515821 30.898265
2009-07-24 07:51:54 51°24.796 2°50.954 22.5277 2.295922 15.51305 31.176857
2009-07-24 07:51:59 51°24.811 2°50.951 22.5565 2.295922 15.51305 31.176857
2009-07-24 07:52:04 51°24.826 2°50.949 22.5484 2.296542 15.515649 30.828617
2009-07-24 07:52:10 51°24.844 2°50.945 22.5571 2.296335 15.514123 31.037561
2009-07-24 07:52:14 51°24.857 2°50.944 22.5605 2.296748 15.516327 30.828617
2009-07-24 07:52:19 51°24.872 2°50.941 22.546 2.295818 15.506063 30.967913
2009-07-24 07:52:24 51°24.887 2°50.938 22.5624 2.296128 15.506656 30.758969
2009-07-24 07:52:29 51°24.902 2°50.937 22.5349 2.296128 15.506656 30.758969
2009-07-24 07:52:34 51°24.917 2°50.933 22.5677 2.295301 15.498856 31.072385
2009-07-24 07:52:39 51°24.932 2°50.931 22.582 2.296025 15.506176 30.793793
2009-07-24 07:52:44 51°24.947 2°50.928 22.527 2.295405 15.500184 31.072385
2009-07-24 07:52:49 51°24.962 2°50.926 22.5918 2.296025 15.507307 30.863441
2009-07-24 07:52:54 51°24.977 2°50.924 22.5491 2.295405 15.502162 30.863441
2009-07-24 07:52:59 51°24.992 2°50.921 22.5647 2.295405 15.502162 30.863441
2009-07-24 07:53:04 51°25.007 2°50.919 22.5764 2.296438 15.508663 30.828617
2009-07-24 07:53:09 51°25.022 2°50.916 22.5592 2.295818 15.501258 30.898265
2009-07-24 07:53:14 51°25.037 2°50.913 22.5532 2.295818 15.498151 30.828617
2009-07-24 07:53:19 51°25.052 2°50.91 22.5664 2.295198 15.493009 31.107209
2009-07-24 07:53:24 51°25.067 2°50.908 22.5752 2.296541 15.502643 30.550024
2009-07-24 07:53:29 51°25.082 2°50.906 22.5462 2.296541 15.502643 30.550024
2009-07-24 07:53:34 51°25.097 2°50.901 22.5974 2.295198 15.493292 31.176857
2009-07-24 07:53:39 51°25.112 2°50.901 22.5664 2.296851 15.506627 30.550024
2009-07-24 07:53:44 51°25.126 2°50.896 22.5554 2.295405 15.495664 31.142033
2009-07-24 07:53:49 51°25.141 2°50.894 22.5759 2.295611 15.498602 30.619673
2009-07-24 07:53:54 51°25.156 2°50.891 22.5495 2.295405 15.496512 30.933089
2009-07-24 07:53:59 51°25.171 2°50.888 22.5751 2.295405 15.496512 30.933089
2009-07-24 07:54:04 51°25.186 2°50.885 22.5638 2.296128 15.501004 30.689321
2009-07-24 07:54:09 51°25.201 2°50.881 22.584 2.295198 15.494703 30.933089
2009-07-24 07:54:14 51°25.217 2°50.88 22.5638 2.296335 15.504225 30.724145
2009-07-24 07:54:19 51°25.232 2°50.876 22.575 2.295611 15.498885 30.863441
2009-07-24 07:54:24 51°25.247 2°50.873 22.5775 2.295405 15.497641 30.967913
2009-07-24 07:54:29 51°25.262 2°50.87 22.5854 2.295405 15.497641 30.967913
2009-07-24 07:54:34 51°25.277 2°50.868 22.5764 2.295301 15.497443 30.724145
2009-07-24 07:54:39 51°25.292 2°50.865 22.5824 2.294785 15.494194 30.863441
2009-07-24 07:54:44 51°25.307 2°50.862 22.5628 2.295921 15.502586 30.724145
2009-07-24 07:54:49 51°25.322 2°50.859 22.5792 2.295198 15.498941 30.898265
2009-07-24 07:54:54 51°25.338 2°50.857 22.5844 2.295301 15.500834 30.654497
2009-07-24 07:54:59 51°25.353 2°50.854 22.5695 2.295301 15.500834 30.654497
2009-07-24 07:55:04 51°25.368 2°50.852 22.5784 2.295405 15.503293 30.758969
2009-07-24 07:55:09 51°25.383 2°50.849 22.5858 2.294888 15.500608 30.793793
2009-07-24 07:55:14 51°25.398 2°50.847 22.5795 2.295508 15.505187 30.724145
2009-07-24 07:55:19 51°25.413 2°50.844 22.5838 2.294681 15.498516 30.793793
2009-07-24 07:55:24 51°25.429 2°50.841 22.5821 2.295095 15.503265 30.654497
2009-07-24 07:55:29 51°25.444 2°50.84 22.5758 2.295095 15.503265 30.654497
2009-07-24 07:55:34 51°25.459 2°50.836 22.5838 2.295095 15.503831 30.758969
2009-07-24 07:55:39 51°25.474 2°50.834 22.5907 2.294681 15.502191 30.758969
2009-07-24 07:55:44 51°25.489 2°50.832 22.5873 2.295302 15.507054 30.619673
2009-07-24 07:55:49 51°25.504 2°50.827 22.5917 2.294578 15.502842 30.828617
2009-07-24 07:55:54 51°25.519 2°50.826 22.5747 2.294061 15.497329 30.619673
2009-07-24 07:55:59 51°25.534 2°50.822 22.5838 2.294061 15.497329 30.619673
2009-07-24 07:56:04 51°25.549 2°50.82 22.6152 2.294268 15.499138 30.933089
2009-07-24 07:56:09 51°25.564 2°50.819 22.574 2.287965 15.452582 30.550024
2009-07-24 07:56:14 51°25.579 2°50.814 22.6063 2.294165 15.49894 31.037561
2009-07-24 07:56:19 51°25.594 2°50.814 22.5906 2.294165 15.499505 30.793793
2009-07-24 07:56:24 51°25.609 2°50.811 22.5896 2.294371 15.500749 30.724145
2009-07-24 07:56:29 51°25.624 2°50.808 22.5811 2.294371 15.500749 30.724145
2009-07-24 07:56:34 51°25.639 2°50.805 22.6187 2.294578 15.50369 30.967913
2009-07-24 07:56:39 51°25.654 2°50.802 22.5782 2.294475 15.504624 30.828617
2009-07-24 07:56:44 51°25.669 2°50.799 22.6035 2.293752 15.498997 31.072385
2009-07-24 07:56:49 51°25.684 2°50.796 22.6162 2.294268 15.50338 30.863441
2009-07-24 07:56:54 51°25.699 2°50.795 22.5821 2.293441 15.494727 31.037561
2009-07-24 07:56:59 51°25.714 2°50.79 22.6131 2.293441 15.494727 31.037561
2009-07-24 07:57:04 51°25.728 2°50.789 22.5905 2.294371 15.500749 30.793793
2009-07-24 07:57:09 51°25.744 2°50.785 22.5983 2.293648 15.493427 31.002737
2009-07-24 07:57:14 51°25.759 2°50.782 22.6042 2.294061 15.496198 30.863441
2009-07-24 07:57:19 51°25.774 2°50.779 22.6004 2.293338 15.49029 31.072385
2009-07-24 07:57:24 51°25.789 2°50.775 22.6128 2.294371 15.499053 30.793793
2009-07-24 07:57:29 51°25.804 2°50.773 22.5875 2.294371 15.499053 30.793793
2009-07-24 07:57:34 51°25.819 2°50.769 22.6128 2.293751 15.494473 31.072385
2009-07-24 07:57:39 51°25.834 2°50.767 22.6067 2.293751 15.496169 30.828617
2009-07-24 07:57:44 51°25.849 2°50.764 22.6058 2.293648 15.495971 31.037561
2009-07-24 07:57:49 51°25.865 2°50.761 22.6244 2.293855 15.499477 30.863441
2009-07-24 07:57:54 51°25.88 2°50.758 22.6134 2.293648 15.499647 30.863441
2009-07-24 07:57:59 51°25.895 2°50.756 22.6022 2.293648 15.499647 30.863441
2009-07-24 07:58:04 51°25.91 2°50.751 22.6152 2.293028 15.495349 30.967913
2009-07-24 07:58:09 51°25.925 2°50.75 22.604 2.293958 15.50307 30.793793
2009-07-24 07:58:14 51°25.94 2°50.746 22.6136 2.292822 15.495518 31.037561
2009-07-24 07:58:19 51°25.955 2°50.744 22.5998 2.292925 15.49713 30.898265
2009-07-24 07:58:24 51°25.971 2°50.739 22.6176 2.293752 15.504938 30.793793
2009-07-24 07:58:29 51°25.986 2°50.739 22.6038 2.293752 15.504938 30.793793
2009-07-24 07:58:34 51°26.001 2°50.735 22.6007 2.293338 15.501883 31.002737
2009-07-24 07:58:39 51°26.016 2°50.733 22.6203 2.293338 15.502732 30.863441
2009-07-24 07:58:44 51°26.031 2°50.73 22.6176 2.293442 15.503213 30.898265
2009-07-24 07:58:50 51°26.049 2°50.727 22.6418 2.293132 15.499789 30.967913
2009-07-24 07:58:54 51°26.061 2°50.726 22.6163 2.292201 15.490654 31.002737
2009-07-24 07:58:59 51°26.077 2°50.721 22.6234 2.292201 15.490654 31.002737
2009-07-24 07:59:04 51°26.092 2°50.721 22.6118 2.293648 15.501345 30.724145
2009-07-24 07:59:09 51°26.107 2°50.716 22.6189 2.292511 15.491814 30.967913
2009-07-24 07:59:14 51°26.122 2°50.715 22.6309 2.293441 15.496989 30.724145
2009-07-24 07:59:19 51°26.137 2°50.711 22.6168 2.293028 15.495066 30.898265
2009-07-24 07:59:24 51°26.153 2°50.711 22.6236 2.293648 15.499647 30.689321
2009-07-24 07:59:29 51°26.168 2°50.707 22.6178 2.293648 15.499647 30.689321
2009-07-24 07:59:34 51°26.183 2°50.705 22.6501 2.292822 15.495235 30.898265
2009-07-24 07:59:39 51°26.198 2°50.703 22.6033 2.293132 15.497243 30.758969
2009-07-24 07:59:44 51°26.213 2°50.699 22.6302 2.292408 15.493595 30.898265
2009-07-24 07:59:49 51°26.228 2°50.698 22.6345 2.292615 15.496254 30.758969
2009-07-24 07:59:54 51°26.243 2°50.694 22.6408 2.292408 15.496141 30.863441
2009-07-24 07:59:59 51°26.259 2°50.692 22.6373 2.292408 15.496141 30.863441
2009-07-24 08:00:04 51°26.274 2°50.689 22.6336 2.292822 15.500045 30.724145
2009-07-24 08:00:09 51°26.289 2°50.687 22.6436 2.292305 15.499055 30.898265
2009-07-24 08:00:14 51°26.304 2°50.686 22.6166 2.092284 14.025122 30.550024
2009-07-24 08:00:19 51°26.319 2°50.682 22.6378 2.292305 15.494528 31.037561
2009-07-24 08:00:24 51°26.335 2°50.682 22.6367 2.292718 15.496169 30.654497
2009-07-24 08:00:29 51°26.35 2°50.679 22.6219 2.292718 15.496169 30.654497
2009-07-24 08:00:34 51°26.365 2°50.677 22.6205 2.292718 15.493623 30.758969
2009-07-24 08:00:39 51°26.38 2°50.673 22.6585 2.292822 15.49467 30.863441
2009-07-24 08:00:44 51°26.395 2°50.672 22.6287 2.292822 15.494953 30.584849
2009-07-24 08:00:49 51°26.411 2°50.669 22.6422 2.292201 15.489806 30.828617
2009-07-24 08:00:54 51°26.426 2°50.666 22.6461 2.292511 15.492096 30.689321
2009-07-24 08:00:59 51°26.441 2°50.664 22.6319 2.292511 15.492096 30.689321
2009-07-24 08:01:04 51°26.456 2°50.661 22.6308 2.292408 15.490767 30.724145
2009-07-24 08:01:10 51°26.475 2°50.658 22.6539 2.292305 15.489439 30.689321
2009-07-24 08:01:14 51°26.487 2°50.656 22.6408 2.291995 15.486865 30.758969
2009-07-24 08:01:19 51°26.502 2°50.653 22.6471 2.292718 15.49221 30.480376
2009-07-24 08:01:24 51°26.517 2°50.651 22.6377 2.291581 15.485224 30.898265
2009-07-24 08:01:29 51°26.533 2°50.648 22.6554 2.291581 15.485224 30.898265
2009-07-24 08:01:34 51°26.548 2°50.646 22.6241 2.288275 15.46164 30.480376
2009-07-24 08:01:39 51°26.563 2°50.642 22.665 2.291375 15.485393 30.758969
2009-07-24 08:01:44 51°26.579 2°50.641 22.6455 2.292615 15.494839 30.584849
2009-07-24 08:01:49 51°26.594 2°50.637 22.6519 2.291581 15.48692 30.793793
2009-07-24 08:01:54 51°26.609 2°50.635 22.6584 2.292512 15.49549 30.550024
2009-07-24 08:01:59 51°26.625 2°50.633 22.6385 2.292512 15.49549 30.550024
2009-07-24 08:02:04 51°26.64 2°50.629 22.6577 2.291581 15.487768 30.898265
2009-07-24 08:02:09 51°26.655 2°50.629 22.6436 2.285691 15.446502 30.375904
2009-07-24 08:02:14 51°26.67 2°50.624 22.634 2.291478 15.487853 30.933089
2009-07-24 08:02:19 51°26.685 2°50.623 22.6755 2.288688 15.465541 30.306256
2009-07-24 08:02:24 51°26.7 2°50.621 22.6231 2.291685 15.486553 30.898265
2009-07-24 08:02:29 51°26.715 2°50.617 22.6747 2.291685 15.486553 30.898265
2009-07-24 08:02:34 51°26.73 2°50.617 22.6477 2.292718 15.493623 30.410728
2009-07-24 08:02:39 51°26.746 2°50.613 22.6461 2.291478 15.484461 30.828617
2009-07-24 08:02:44 51°26.761 2°50.613 22.6479 2.291581 15.484659 30.550024
2009-07-24 08:02:50 51°26.779 2°50.609 22.6649 2.291995 15.488844 30.654497
2009-07-24 08:02:54 51°26.791 2°50.61 22.6674 2.291788 15.487599 30.445552
2009-07-24 08:02:59 51°26.806 2°50.608 22.662 2.291788 15.487599 30.445552
2009-07-24 08:03:04 51°26.821 2°50.606 22.6553 2.291891 15.488646 30.5152
2009-07-24 08:03:10 51°26.84 2°50.604 22.6419 2.291478 15.485309 30.550024
2009-07-24 08:03:14 51°26.851 2°50.602 22.6696 2.291788 15.489013 30.619673
2009-07-24 08:03:19 51°26.866 2°50.602 22.6419 2.291375 15.484828 30.480376
2009-07-24 08:03:24 51°26.881 2°50.598 22.6611 2.291788 15.488165 30.550024
2009-07-24 08:03:30 51°26.899 2°50.597 22.6836 2.291788 15.488165 30.550024
2009-07-24 08:03:34 51°26.911 2°50.596 22.6852 2.291788 15.487034 30.445552
2009-07-24 08:03:39 51°26.926 2°50.594 22.6606 2.288791 15.464611 30.375904
2009-07-24 08:03:44 51°26.941 2°50.59 22.6855 2.291168 15.482453 30.584849
2009-07-24 08:03:49 51°26.956 2°50.589 22.6588 2.290651 15.478918 30.480376
2009-07-24 08:03:54 51°26.971 2°50.586 22.6754 2.291065 15.481972 30.584849
2009-07-24 08:03:59 51°26.986 2°50.584 22.6721 2.291065 15.481972 30.584849
2009-07-24 08:04:04 51°27 2°50.583 22.6785 2.290858 15.482423 30.5152
2009-07-24 08:04:09 51°27.015 2°50.58 22.6547 2.290961 15.483469 30.5152
2009-07-24 08:04:14 51°27.03 2°50.577 22.6704 2.290755 15.483072 30.5152
2009-07-24 08:04:19 51°27.045 2°50.575 22.6801 2.291375 15.488786 30.410728
2009-07-24 08:04:24 51°27.06 2°50.573 22.6751 2.290652 15.486832 30.550024
2009-07-24 08:04:29 51°27.075 2°50.571 22.6908 2.290652 15.486832 30.550024
2009-07-24 08:04:34 51°27.09 2°50.568 22.6839 2.290342 15.486237 30.445552
2009-07-24 08:04:39 51°27.105 2°50.568 22.6759 2.291065 15.494698 30.410728
2009-07-24 08:04:44 51°27.12 2°50.565 22.678 2.290342 15.488783 30.375904
2009-07-24 08:04:49 51°27.135 2°50.562 22.6898 2.291168 15.496312 30.410728
2009-07-24 08:04:54 51°27.15 2°50.562 22.6797 2.290032 15.488189 30.410728
2009-07-24 08:04:59 51°27.165 2°50.558 22.6941 2.290032 15.488189 30.410728
2009-07-24 08:05:04 51°27.18 2°50.558 22.674 2.290962 15.495916 30.236608
2009-07-24 08:05:10 51°27.198 2°50.555 22.6867 2.290548 15.492859 30.410728
2009-07-24 08:05:14 51°27.211 2°50.554 22.6861 2.290032 15.489604 30.445552
2009-07-24 08:05:19 51°27.225 2°50.552 22.6753 2.290548 15.493425 30.201784
2009-07-24 08:05:24 51°27.241 2°50.55 22.6705 2.290548 15.494274 30.375904
2009-07-24 08:05:30 51°27.259 2°50.548 22.6844 2.290548 15.494274 30.375904
2009-07-24 08:05:34 51°27.271 2°50.548 22.6735 2.289928 15.49167 30.201784
2009-07-24 08:05:39 51°27.286 2°50.544 22.685 2.290032 15.493001 30.410728
2009-07-24 08:05:44 51°27.301 2°50.543 22.6966 2.289825 15.494304 30.16696
2009-07-24 08:05:49 51°27.316 2°50.541 22.6668 2.290135 15.496315 30.410728
2009-07-24 08:05:54 51°27.331 2°50.539 22.7148 2.290239 15.497929 30.34108
2009-07-24 08:05:59 51°27.347 2°50.538 22.6988 2.290239 15.497929 30.34108
2009-07-24 08:06:04 51°27.361 2°50.536 22.7057 2.290135 15.498581 30.271432
2009-07-24 08:06:09 51°27.377 2°50.534 22.7093 2.289619 15.494758 30.271432
2009-07-24 08:06:14 51°27.392 2°50.532 22.6879 2.290549 15.504191 30.306256
2009-07-24 08:06:19 51°27.407 2°50.53 22.6909 2.290135 15.509926 30.271432
2009-07-24 08:06:24 51°27.422 2°50.528 22.7037 2.290342 15.510889 30.306256
2009-07-24 08:06:29 51°27.437 2°50.526 22.6843 2.290342 15.510889 30.306256
2009-07-24 08:06:34 51°27.452 2°50.523 22.6909 2.289825 15.500822 30.34108
2009-07-24 08:06:39 51°27.467 2°50.522 22.7036 2.290135 15.502833 30.201784
2009-07-24 08:06:44 51°27.482 2°50.519 22.6849 2.289722 15.497506 30.410728
2009-07-24 08:06:49 51°27.497 2°50.517 22.7167 2.290652 15.506941 30.062488
2009-07-24 08:06:54 51°27.512 2°50.516 22.6864 2.289722 15.497223 30.236608
2009-07-24 08:06:59 51°27.528 2°50.513 22.7039 2.289722 15.497223 30.236608
2009-07-24 08:07:04 51°27.543 2°50.51 22.7053 2.289515 15.498244 30.34108
2009-07-24 08:07:09 51°27.557 2°50.509 22.6841 2.288689 15.489859 30.097312
2009-07-24 08:07:14 51°27.572 2°50.505 22.7203 2.289515 15.498244 30.34108